<?xml version="1.0" encoding="UTF-8" standalone="no" ?>
<gpx xmlns="http://www.topografix.com/GPX/1/1" xmlns:xsi="http://www.w3.org/2001/XMLSchema-instance" xsi:schemaLocation="http://www.topografix.com/GPX/1/1 http://www.topografix.com/GPX/1/1/gpx.xsd" version="1.1" creator="VisuGPX - https://www.visugpx.com">
  <metadata>
    <name>Vacances 2021</name>
  </metadata>
  <trk>
    <name><![CDATA[Journal actif: 2021-07-21 15:16]]></name>
    <trkseg>
      <trkpt lat="49.05416" lon="7.33768">
        <ele>269.31</ele>
        <time>2021-07-21T17:16:27Z</time>
      </trkpt>
      <trkpt lat="49.05417" lon="7.33757">
        <ele>269.79</ele>
        <time>2021-07-21T17:17:50Z</time>
      </trkpt>
      <trkpt lat="49.05415" lon="7.33677">
        <ele>271.71</ele>
        <time>2021-07-21T17:17:58Z</time>
      </trkpt>
      <trkpt lat="49.054" lon="7.33465">
        <ele>279.88</ele>
        <time>2021-07-21T17:18:09Z</time>
      </trkpt>
      <trkpt lat="49.05392" lon="7.33206">
        <ele>285.17</ele>
        <time>2021-07-21T17:18:20Z</time>
      </trkpt>
      <trkpt lat="49.05355" lon="7.32913">
        <ele>294.78</ele>
        <time>2021-07-21T17:18:32Z</time>
      </trkpt>
      <trkpt lat="49.05344" lon="7.32742">
        <ele>300.07</ele>
        <time>2021-07-21T17:18:39Z</time>
      </trkpt>
      <trkpt lat="49.0534" lon="7.3272">
        <ele>299.59</ele>
        <time>2021-07-21T17:18:40Z</time>
      </trkpt>
      <trkpt lat="49.05332" lon="7.32699">
        <ele>300.55</ele>
        <time>2021-07-21T17:18:41Z</time>
      </trkpt>
      <trkpt lat="49.05325" lon="7.32681">
        <ele>301.03</ele>
        <time>2021-07-21T17:18:42Z</time>
      </trkpt>
      <trkpt lat="49.05315" lon="7.32663">
        <ele>301.99</ele>
        <time>2021-07-21T17:18:43Z</time>
      </trkpt>
      <trkpt lat="49.05256" lon="7.32549">
        <ele>303.43</ele>
        <time>2021-07-21T17:18:50Z</time>
      </trkpt>
      <trkpt lat="49.0525" lon="7.32533">
        <ele>304.88</ele>
        <time>2021-07-21T17:18:51Z</time>
      </trkpt>
      <trkpt lat="49.05248" lon="7.32522">
        <ele>306.32</ele>
        <time>2021-07-21T17:18:52Z</time>
      </trkpt>
      <trkpt lat="49.05251" lon="7.32502">
        <ele>306.8</ele>
        <time>2021-07-21T17:18:53Z</time>
      </trkpt>
      <trkpt lat="49.05255" lon="7.32494">
        <ele>307.28</ele>
        <time>2021-07-21T17:18:54Z</time>
      </trkpt>
      <trkpt lat="49.05262" lon="7.32483">
        <ele>306.8</ele>
        <time>2021-07-21T17:18:55Z</time>
      </trkpt>
      <trkpt lat="49.05269" lon="7.32473">
        <ele>307.28</ele>
        <time>2021-07-21T17:18:56Z</time>
      </trkpt>
      <trkpt lat="49.05276" lon="7.32472">
        <ele>307.28</ele>
        <time>2021-07-21T17:18:57Z</time>
      </trkpt>
      <trkpt lat="49.05287" lon="7.32471">
        <ele>305.84</ele>
        <time>2021-07-21T17:18:58Z</time>
      </trkpt>
      <trkpt lat="49.05299" lon="7.32469">
        <ele>305.84</ele>
        <time>2021-07-21T17:18:59Z</time>
      </trkpt>
      <trkpt lat="49.05311" lon="7.32467">
        <ele>307.28</ele>
        <time>2021-07-21T17:19:00Z</time>
      </trkpt>
      <trkpt lat="49.0532" lon="7.32462">
        <ele>308.24</ele>
        <time>2021-07-21T17:19:01Z</time>
      </trkpt>
      <trkpt lat="49.05331" lon="7.32455">
        <ele>308.72</ele>
        <time>2021-07-21T17:19:02Z</time>
      </trkpt>
      <trkpt lat="49.05342" lon="7.32449">
        <ele>309.2</ele>
        <time>2021-07-21T17:19:03Z</time>
      </trkpt>
      <trkpt lat="49.05348" lon="7.32437">
        <ele>311.12</ele>
        <time>2021-07-21T17:19:04Z</time>
      </trkpt>
      <trkpt lat="49.05351" lon="7.32426">
        <ele>311.6</ele>
        <time>2021-07-21T17:19:05Z</time>
      </trkpt>
      <trkpt lat="49.05351" lon="7.32408">
        <ele>310.64</ele>
        <time>2021-07-21T17:19:06Z</time>
      </trkpt>
      <trkpt lat="49.05352" lon="7.3239">
        <ele>309.68</ele>
        <time>2021-07-21T17:19:07Z</time>
      </trkpt>
      <trkpt lat="49.05353" lon="7.32372">
        <ele>310.16</ele>
        <time>2021-07-21T17:19:08Z</time>
      </trkpt>
      <trkpt lat="49.05347" lon="7.32315">
        <ele>313.53</ele>
        <time>2021-07-21T17:19:11Z</time>
      </trkpt>
      <trkpt lat="49.05347" lon="7.32293">
        <ele>314.97</ele>
        <time>2021-07-21T17:19:12Z</time>
      </trkpt>
      <trkpt lat="49.0535" lon="7.32273">
        <ele>315.45</ele>
        <time>2021-07-21T17:19:13Z</time>
      </trkpt>
      <trkpt lat="49.05354" lon="7.32251">
        <ele>316.89</ele>
        <time>2021-07-21T17:19:14Z</time>
      </trkpt>
      <trkpt lat="49.0536" lon="7.32233">
        <ele>316.89</ele>
        <time>2021-07-21T17:19:15Z</time>
      </trkpt>
      <trkpt lat="49.05367" lon="7.32214">
        <ele>317.85</ele>
        <time>2021-07-21T17:19:16Z</time>
      </trkpt>
      <trkpt lat="49.05378" lon="7.322">
        <ele>319.3</ele>
        <time>2021-07-21T17:19:17Z</time>
      </trkpt>
      <trkpt lat="49.0539" lon="7.32185">
        <ele>320.74</ele>
        <time>2021-07-21T17:19:18Z</time>
      </trkpt>
      <trkpt lat="49.05413" lon="7.32156">
        <ele>324.1</ele>
        <time>2021-07-21T17:19:20Z</time>
      </trkpt>
      <trkpt lat="49.05423" lon="7.32142">
        <ele>325.54</ele>
        <time>2021-07-21T17:19:21Z</time>
      </trkpt>
      <trkpt lat="49.05432" lon="7.32128">
        <ele>327.47</ele>
        <time>2021-07-21T17:19:22Z</time>
      </trkpt>
      <trkpt lat="49.05438" lon="7.3211">
        <ele>328.91</ele>
        <time>2021-07-21T17:19:23Z</time>
      </trkpt>
      <trkpt lat="49.05443" lon="7.32095">
        <ele>328.43</ele>
        <time>2021-07-21T17:19:24Z</time>
      </trkpt>
      <trkpt lat="49.05443" lon="7.32074">
        <ele>327.95</ele>
        <time>2021-07-21T17:19:25Z</time>
      </trkpt>
      <trkpt lat="49.05443" lon="7.32054">
        <ele>328.91</ele>
        <time>2021-07-21T17:19:26Z</time>
      </trkpt>
      <trkpt lat="49.05438" lon="7.32036">
        <ele>330.83</ele>
        <time>2021-07-21T17:19:27Z</time>
      </trkpt>
      <trkpt lat="49.0543" lon="7.32018">
        <ele>332.27</ele>
        <time>2021-07-21T17:19:28Z</time>
      </trkpt>
      <trkpt lat="49.05421" lon="7.32001">
        <ele>333.71</ele>
        <time>2021-07-21T17:19:29Z</time>
      </trkpt>
      <trkpt lat="49.0541" lon="7.31988">
        <ele>333.71</ele>
        <time>2021-07-21T17:19:30Z</time>
      </trkpt>
      <trkpt lat="49.05398" lon="7.31977">
        <ele>333.23</ele>
        <time>2021-07-21T17:19:31Z</time>
      </trkpt>
      <trkpt lat="49.05226" lon="7.31814">
        <ele>342.37</ele>
        <time>2021-07-21T17:19:44Z</time>
      </trkpt>
      <trkpt lat="49.05226" lon="7.31814">
        <ele>342.37</ele>
        <time>2021-07-21T17:19:45Z</time>
      </trkpt>
      <trkpt lat="49.05215" lon="7.31797">
        <ele>342.85</ele>
        <time>2021-07-21T17:19:46Z</time>
      </trkpt>
      <trkpt lat="49.05206" lon="7.31778">
        <ele>343.33</ele>
        <time>2021-07-21T17:19:47Z</time>
      </trkpt>
      <trkpt lat="49.05198" lon="7.31758">
        <ele>344.29</ele>
        <time>2021-07-21T17:19:48Z</time>
      </trkpt>
      <trkpt lat="49.05191" lon="7.31738">
        <ele>345.25</ele>
        <time>2021-07-21T17:19:49Z</time>
      </trkpt>
      <trkpt lat="49.05185" lon="7.31715">
        <ele>346.21</ele>
        <time>2021-07-21T17:19:50Z</time>
      </trkpt>
      <trkpt lat="49.05142" lon="7.31482">
        <ele>354.86</ele>
        <time>2021-07-21T17:20:00Z</time>
      </trkpt>
      <trkpt lat="49.05135" lon="7.31441">
        <ele>356.79</ele>
        <time>2021-07-21T17:20:02Z</time>
      </trkpt>
      <trkpt lat="49.05131" lon="7.31423">
        <ele>357.75</ele>
        <time>2021-07-21T17:20:03Z</time>
      </trkpt>
      <trkpt lat="49.05125" lon="7.31404">
        <ele>359.19</ele>
        <time>2021-07-21T17:20:04Z</time>
      </trkpt>
      <trkpt lat="49.05088" lon="7.31284">
        <ele>359.67</ele>
        <time>2021-07-21T17:20:12Z</time>
      </trkpt>
      <trkpt lat="49.05086" lon="7.31273">
        <ele>359.67</ele>
        <time>2021-07-21T17:20:13Z</time>
      </trkpt>
      <trkpt lat="49.05084" lon="7.31265">
        <ele>360.15</ele>
        <time>2021-07-21T17:20:14Z</time>
      </trkpt>
      <trkpt lat="49.05082" lon="7.31259">
        <ele>360.15</ele>
        <time>2021-07-21T17:20:15Z</time>
      </trkpt>
      <trkpt lat="49.0509" lon="7.31251">
        <ele>359.67</ele>
        <time>2021-07-21T17:20:16Z</time>
      </trkpt>
      <trkpt lat="49.05094" lon="7.31251">
        <ele>359.19</ele>
        <time>2021-07-21T17:20:17Z</time>
      </trkpt>
      <trkpt lat="49.05102" lon="7.3125">
        <ele>358.71</ele>
        <time>2021-07-21T17:20:18Z</time>
      </trkpt>
      <trkpt lat="49.05178" lon="7.31191">
        <ele>355.83</ele>
        <time>2021-07-21T17:20:25Z</time>
      </trkpt>
      <trkpt lat="49.05241" lon="7.31136">
        <ele>354.38</ele>
        <time>2021-07-21T17:20:32Z</time>
      </trkpt>
      <trkpt lat="49.05252" lon="7.3113">
        <ele>354.38</ele>
        <time>2021-07-21T17:20:33Z</time>
      </trkpt>
      <trkpt lat="49.05369" lon="7.31097">
        <ele>351.98</ele>
        <time>2021-07-21T17:20:43Z</time>
      </trkpt>
      <trkpt lat="49.05511" lon="7.31132">
        <ele>351.02</ele>
        <time>2021-07-21T17:20:55Z</time>
      </trkpt>
      <trkpt lat="49.05671" lon="7.31156">
        <ele>350.06</ele>
        <time>2021-07-21T17:21:08Z</time>
      </trkpt>
      <trkpt lat="49.05818" lon="7.31162">
        <ele>352.46</ele>
        <time>2021-07-21T17:21:21Z</time>
      </trkpt>
      <trkpt lat="49.05984" lon="7.3115">
        <ele>350.06</ele>
        <time>2021-07-21T17:21:33Z</time>
      </trkpt>
      <trkpt lat="49.06117" lon="7.31102">
        <ele>349.1</ele>
        <time>2021-07-21T17:21:44Z</time>
      </trkpt>
      <trkpt lat="49.06124" lon="7.31099">
        <ele>348.62</ele>
        <time>2021-07-21T17:21:45Z</time>
      </trkpt>
      <trkpt lat="49.06136" lon="7.31095">
        <ele>348.62</ele>
        <time>2021-07-21T17:21:47Z</time>
      </trkpt>
      <trkpt lat="49.06141" lon="7.31093">
        <ele>348.62</ele>
        <time>2021-07-21T17:21:48Z</time>
      </trkpt>
      <trkpt lat="49.06154" lon="7.31089">
        <ele>348.62</ele>
        <time>2021-07-21T17:21:50Z</time>
      </trkpt>
      <trkpt lat="49.06161" lon="7.31086">
        <ele>348.13</ele>
        <time>2021-07-21T17:21:51Z</time>
      </trkpt>
      <trkpt lat="49.06242" lon="7.31093">
        <ele>344.77</ele>
        <time>2021-07-21T17:21:59Z</time>
      </trkpt>
      <trkpt lat="49.06403" lon="7.31104">
        <ele>343.33</ele>
        <time>2021-07-21T17:22:09Z</time>
      </trkpt>
      <trkpt lat="49.06403" lon="7.31104">
        <ele>343.81</ele>
        <time>2021-07-21T17:22:10Z</time>
      </trkpt>
      <trkpt lat="49.06418" lon="7.31096">
        <ele>344.29</ele>
        <time>2021-07-21T17:22:11Z</time>
      </trkpt>
      <trkpt lat="49.06433" lon="7.31088">
        <ele>344.77</ele>
        <time>2021-07-21T17:22:12Z</time>
      </trkpt>
      <trkpt lat="49.06464" lon="7.31064">
        <ele>344.77</ele>
        <time>2021-07-21T17:22:13Z</time>
      </trkpt>
      <trkpt lat="49.06464" lon="7.31064">
        <ele>345.25</ele>
        <time>2021-07-21T17:22:14Z</time>
      </trkpt>
      <trkpt lat="49.06476" lon="7.31049">
        <ele>345.25</ele>
        <time>2021-07-21T17:22:15Z</time>
      </trkpt>
      <trkpt lat="49.06489" lon="7.31034">
        <ele>345.25</ele>
        <time>2021-07-21T17:22:16Z</time>
      </trkpt>
      <trkpt lat="49.06501" lon="7.3102">
        <ele>346.21</ele>
        <time>2021-07-21T17:22:17Z</time>
      </trkpt>
      <trkpt lat="49.06519" lon="7.30984">
        <ele>346.21</ele>
        <time>2021-07-21T17:22:18Z</time>
      </trkpt>
      <trkpt lat="49.06519" lon="7.30984">
        <ele>345.73</ele>
        <time>2021-07-21T17:22:19Z</time>
      </trkpt>
      <trkpt lat="49.06643" lon="7.30722">
        <ele>344.29</ele>
        <time>2021-07-21T17:22:32Z</time>
      </trkpt>
      <trkpt lat="49.06728" lon="7.3061">
        <ele>339.48</ele>
        <time>2021-07-21T17:22:39Z</time>
      </trkpt>
      <trkpt lat="49.07007" lon="7.30363">
        <ele>327.95</ele>
        <time>2021-07-21T17:22:58Z</time>
      </trkpt>
      <trkpt lat="49.07107" lon="7.30229">
        <ele>322.18</ele>
        <time>2021-07-21T17:23:07Z</time>
      </trkpt>
      <trkpt lat="49.07191" lon="7.30115">
        <ele>322.66</ele>
        <time>2021-07-21T17:23:15Z</time>
      </trkpt>
      <trkpt lat="49.07199" lon="7.30099">
        <ele>321.7</ele>
        <time>2021-07-21T17:23:16Z</time>
      </trkpt>
      <trkpt lat="49.07203" lon="7.3008">
        <ele>321.22</ele>
        <time>2021-07-21T17:23:17Z</time>
      </trkpt>
      <trkpt lat="49.07245" lon="7.29898">
        <ele>316.41</ele>
        <time>2021-07-21T17:23:26Z</time>
      </trkpt>
      <trkpt lat="49.07254" lon="7.2986">
        <ele>316.89</ele>
        <time>2021-07-21T17:23:28Z</time>
      </trkpt>
      <trkpt lat="49.0726" lon="7.29845">
        <ele>317.37</ele>
        <time>2021-07-21T17:23:29Z</time>
      </trkpt>
      <trkpt lat="49.07267" lon="7.2983">
        <ele>318.33</ele>
        <time>2021-07-21T17:23:30Z</time>
      </trkpt>
      <trkpt lat="49.07273" lon="7.29819">
        <ele>318.33</ele>
        <time>2021-07-21T17:23:31Z</time>
      </trkpt>
      <trkpt lat="49.07282" lon="7.29806">
        <ele>318.81</ele>
        <time>2021-07-21T17:23:32Z</time>
      </trkpt>
      <trkpt lat="49.0729" lon="7.29795">
        <ele>319.3</ele>
        <time>2021-07-21T17:23:33Z</time>
      </trkpt>
      <trkpt lat="49.07299" lon="7.29787">
        <ele>320.26</ele>
        <time>2021-07-21T17:23:34Z</time>
      </trkpt>
      <trkpt lat="49.07354" lon="7.29751">
        <ele>323.14</ele>
        <time>2021-07-21T17:23:41Z</time>
      </trkpt>
      <trkpt lat="49.0736" lon="7.29749">
        <ele>323.14</ele>
        <time>2021-07-21T17:23:42Z</time>
      </trkpt>
      <trkpt lat="49.07401" lon="7.29749">
        <ele>321.7</ele>
        <time>2021-07-21T17:23:48Z</time>
      </trkpt>
      <trkpt lat="49.0741" lon="7.29749">
        <ele>321.7</ele>
        <time>2021-07-21T17:23:49Z</time>
      </trkpt>
      <trkpt lat="49.07427" lon="7.29751">
        <ele>320.26</ele>
        <time>2021-07-21T17:23:51Z</time>
      </trkpt>
      <trkpt lat="49.07437" lon="7.29753">
        <ele>320.26</ele>
        <time>2021-07-21T17:23:52Z</time>
      </trkpt>
      <trkpt lat="49.07447" lon="7.29753">
        <ele>320.74</ele>
        <time>2021-07-21T17:23:53Z</time>
      </trkpt>
      <trkpt lat="49.07456" lon="7.29749">
        <ele>321.22</ele>
        <time>2021-07-21T17:23:54Z</time>
      </trkpt>
      <trkpt lat="49.07465" lon="7.29746">
        <ele>321.22</ele>
        <time>2021-07-21T17:23:55Z</time>
      </trkpt>
      <trkpt lat="49.07472" lon="7.2974">
        <ele>322.18</ele>
        <time>2021-07-21T17:23:56Z</time>
      </trkpt>
      <trkpt lat="49.07478" lon="7.29728">
        <ele>321.7</ele>
        <time>2021-07-21T17:23:57Z</time>
      </trkpt>
      <trkpt lat="49.07486" lon="7.29706">
        <ele>321.22</ele>
        <time>2021-07-21T17:23:58Z</time>
      </trkpt>
      <trkpt lat="49.07486" lon="7.29706">
        <ele>320.26</ele>
        <time>2021-07-21T17:23:59Z</time>
      </trkpt>
      <trkpt lat="49.07487" lon="7.29677">
        <ele>320.26</ele>
        <time>2021-07-21T17:24:00Z</time>
      </trkpt>
      <trkpt lat="49.07487" lon="7.29677">
        <ele>320.26</ele>
        <time>2021-07-21T17:24:01Z</time>
      </trkpt>
      <trkpt lat="49.07485" lon="7.29661">
        <ele>319.78</ele>
        <time>2021-07-21T17:24:02Z</time>
      </trkpt>
      <trkpt lat="49.07483" lon="7.29644">
        <ele>320.26</ele>
        <time>2021-07-21T17:24:03Z</time>
      </trkpt>
      <trkpt lat="49.07458" lon="7.29469">
        <ele>319.78</ele>
        <time>2021-07-21T17:24:13Z</time>
      </trkpt>
      <trkpt lat="49.07458" lon="7.29429">
        <ele>319.78</ele>
        <time>2021-07-21T17:24:14Z</time>
      </trkpt>
      <trkpt lat="49.07458" lon="7.29429">
        <ele>321.22</ele>
        <time>2021-07-21T17:24:15Z</time>
      </trkpt>
      <trkpt lat="49.0746" lon="7.29409">
        <ele>320.74</ele>
        <time>2021-07-21T17:24:16Z</time>
      </trkpt>
      <trkpt lat="49.07463" lon="7.29389">
        <ele>322.66</ele>
        <time>2021-07-21T17:24:17Z</time>
      </trkpt>
      <trkpt lat="49.07478" lon="7.29354">
        <ele>324.1</ele>
        <time>2021-07-21T17:24:18Z</time>
      </trkpt>
      <trkpt lat="49.07478" lon="7.29354">
        <ele>324.1</ele>
        <time>2021-07-21T17:24:19Z</time>
      </trkpt>
      <trkpt lat="49.07486" lon="7.29338">
        <ele>323.62</ele>
        <time>2021-07-21T17:24:20Z</time>
      </trkpt>
      <trkpt lat="49.07624" lon="7.29103">
        <ele>311.6</ele>
        <time>2021-07-21T17:24:35Z</time>
      </trkpt>
      <trkpt lat="49.07644" lon="7.29074">
        <ele>311.6</ele>
        <time>2021-07-21T17:24:37Z</time>
      </trkpt>
      <trkpt lat="49.0765" lon="7.29058">
        <ele>312.57</ele>
        <time>2021-07-21T17:24:38Z</time>
      </trkpt>
      <trkpt lat="49.07656" lon="7.29042">
        <ele>313.05</ele>
        <time>2021-07-21T17:24:39Z</time>
      </trkpt>
      <trkpt lat="49.07697" lon="7.28934">
        <ele>317.85</ele>
        <time>2021-07-21T17:24:45Z</time>
      </trkpt>
      <trkpt lat="49.07703" lon="7.28923">
        <ele>317.85</ele>
        <time>2021-07-21T17:24:46Z</time>
      </trkpt>
      <trkpt lat="49.0771" lon="7.28913">
        <ele>317.37</ele>
        <time>2021-07-21T17:24:47Z</time>
      </trkpt>
      <trkpt lat="49.07787" lon="7.28799">
        <ele>315.45</ele>
        <time>2021-07-21T17:24:58Z</time>
      </trkpt>
      <trkpt lat="49.07903" lon="7.28629">
        <ele>311.6</ele>
        <time>2021-07-21T17:25:11Z</time>
      </trkpt>
      <trkpt lat="49.07912" lon="7.28621">
        <ele>312.09</ele>
        <time>2021-07-21T17:25:12Z</time>
      </trkpt>
      <trkpt lat="49.07953" lon="7.28599">
        <ele>313.05</ele>
        <time>2021-07-21T17:25:17Z</time>
      </trkpt>
      <trkpt lat="49.07963" lon="7.28593">
        <ele>312.09</ele>
        <time>2021-07-21T17:25:18Z</time>
      </trkpt>
      <trkpt lat="49.07973" lon="7.2859">
        <ele>312.09</ele>
        <time>2021-07-21T17:25:19Z</time>
      </trkpt>
      <trkpt lat="49.08061" lon="7.2857">
        <ele>313.05</ele>
        <time>2021-07-21T17:25:26Z</time>
      </trkpt>
      <trkpt lat="49.08061" lon="7.2857">
        <ele>312.57</ele>
        <time>2021-07-21T17:25:27Z</time>
      </trkpt>
      <trkpt lat="49.08196" lon="7.28478">
        <ele>309.68</ele>
        <time>2021-07-21T17:25:38Z</time>
      </trkpt>
      <trkpt lat="49.08477" lon="7.2828">
        <ele>307.76</ele>
        <time>2021-07-21T17:25:58Z</time>
      </trkpt>
      <trkpt lat="49.08806" lon="7.28048">
        <ele>305.36</ele>
        <time>2021-07-21T17:26:20Z</time>
      </trkpt>
      <trkpt lat="49.09103" lon="7.2784">
        <ele>302.47</ele>
        <time>2021-07-21T17:26:41Z</time>
      </trkpt>
      <trkpt lat="49.09193" lon="7.27776">
        <ele>303.43</ele>
        <time>2021-07-21T17:26:49Z</time>
      </trkpt>
      <trkpt lat="49.09219" lon="7.27756">
        <ele>302.95</ele>
        <time>2021-07-21T17:26:56Z</time>
      </trkpt>
      <trkpt lat="49.09219" lon="7.27756">
        <ele>302.47</ele>
        <time>2021-07-21T17:27:05Z</time>
      </trkpt>
      <trkpt lat="49.09219" lon="7.27756">
        <ele>302.47</ele>
        <time>2021-07-21T17:27:06Z</time>
      </trkpt>
      <trkpt lat="49.09219" lon="7.27751">
        <ele>302.47</ele>
        <time>2021-07-21T17:27:07Z</time>
      </trkpt>
      <trkpt lat="49.09219" lon="7.27743">
        <ele>301.99</ele>
        <time>2021-07-21T17:27:08Z</time>
      </trkpt>
      <trkpt lat="49.09217" lon="7.27727">
        <ele>302.47</ele>
        <time>2021-07-21T17:27:09Z</time>
      </trkpt>
      <trkpt lat="49.09214" lon="7.27721">
        <ele>302.47</ele>
        <time>2021-07-21T17:27:10Z</time>
      </trkpt>
      <trkpt lat="49.09214" lon="7.27721">
        <ele>302.95</ele>
        <time>2021-07-21T17:27:11Z</time>
      </trkpt>
      <trkpt lat="49.0921" lon="7.27715">
        <ele>302.95</ele>
        <time>2021-07-21T17:27:12Z</time>
      </trkpt>
      <trkpt lat="49.09205" lon="7.27709">
        <ele>303.43</ele>
        <time>2021-07-21T17:27:13Z</time>
      </trkpt>
      <trkpt lat="49.09199" lon="7.27702">
        <ele>303.91</ele>
        <time>2021-07-21T17:27:14Z</time>
      </trkpt>
      <trkpt lat="49.09184" lon="7.27697">
        <ele>304.39</ele>
        <time>2021-07-21T17:27:15Z</time>
      </trkpt>
      <trkpt lat="49.09184" lon="7.27697">
        <ele>304.39</ele>
        <time>2021-07-21T17:27:16Z</time>
      </trkpt>
      <trkpt lat="49.09175" lon="7.27695">
        <ele>304.88</ele>
        <time>2021-07-21T17:27:17Z</time>
      </trkpt>
      <trkpt lat="49.09146" lon="7.27687">
        <ele>305.36</ele>
        <time>2021-07-21T17:27:20Z</time>
      </trkpt>
      <trkpt lat="49.09137" lon="7.2768">
        <ele>305.36</ele>
        <time>2021-07-21T17:27:21Z</time>
      </trkpt>
      <trkpt lat="49.0912" lon="7.27667">
        <ele>305.84</ele>
        <time>2021-07-21T17:27:22Z</time>
      </trkpt>
      <trkpt lat="49.09111" lon="7.27656">
        <ele>304.88</ele>
        <time>2021-07-21T17:27:23Z</time>
      </trkpt>
      <trkpt lat="49.09104" lon="7.27641">
        <ele>305.36</ele>
        <time>2021-07-21T17:27:24Z</time>
      </trkpt>
      <trkpt lat="49.09095" lon="7.27624">
        <ele>305.84</ele>
        <time>2021-07-21T17:27:25Z</time>
      </trkpt>
      <trkpt lat="49.09014" lon="7.2747">
        <ele>309.2</ele>
        <time>2021-07-21T17:27:34Z</time>
      </trkpt>
      <trkpt lat="49.08915" lon="7.272">
        <ele>312.09</ele>
        <time>2021-07-21T17:27:44Z</time>
      </trkpt>
      <trkpt lat="49.08841" lon="7.26835">
        <ele>321.7</ele>
        <time>2021-07-21T17:27:56Z</time>
      </trkpt>
      <trkpt lat="49.08817" lon="7.26501">
        <ele>336.6</ele>
        <time>2021-07-21T17:28:07Z</time>
      </trkpt>
      <trkpt lat="49.08838" lon="7.26168">
        <ele>353.42</ele>
        <time>2021-07-21T17:28:19Z</time>
      </trkpt>
      <trkpt lat="49.08895" lon="7.2585">
        <ele>367.84</ele>
        <time>2021-07-21T17:28:31Z</time>
      </trkpt>
      <trkpt lat="49.09003" lon="7.25525">
        <ele>375.53</ele>
        <time>2021-07-21T17:28:44Z</time>
      </trkpt>
      <trkpt lat="49.09139" lon="7.25256">
        <ele>377.45</ele>
        <time>2021-07-21T17:28:55Z</time>
      </trkpt>
      <trkpt lat="49.09393" lon="7.2485">
        <ele>372.65</ele>
        <time>2021-07-21T17:29:13Z</time>
      </trkpt>
      <trkpt lat="49.09683" lon="7.24391">
        <ele>367.36</ele>
        <time>2021-07-21T17:29:33Z</time>
      </trkpt>
      <trkpt lat="49.09983" lon="7.23892">
        <ele>364</ele>
        <time>2021-07-21T17:29:53Z</time>
      </trkpt>
      <trkpt lat="49.10085" lon="7.23626">
        <ele>363.52</ele>
        <time>2021-07-21T17:30:02Z</time>
      </trkpt>
      <trkpt lat="49.10151" lon="7.23305">
        <ele>365.44</ele>
        <time>2021-07-21T17:30:12Z</time>
      </trkpt>
      <trkpt lat="49.10167" lon="7.22976">
        <ele>366.88</ele>
        <time>2021-07-21T17:30:22Z</time>
      </trkpt>
      <trkpt lat="49.10139" lon="7.22696">
        <ele>367.84</ele>
        <time>2021-07-21T17:30:31Z</time>
      </trkpt>
      <trkpt lat="49.10076" lon="7.22423">
        <ele>368.32</ele>
        <time>2021-07-21T17:30:43Z</time>
      </trkpt>
      <trkpt lat="49.09981" lon="7.22188">
        <ele>367.36</ele>
        <time>2021-07-21T17:30:54Z</time>
      </trkpt>
      <trkpt lat="49.09832" lon="7.21895">
        <ele>362.55</ele>
        <time>2021-07-21T17:31:06Z</time>
      </trkpt>
      <trkpt lat="49.09601" lon="7.21453">
        <ele>354.38</ele>
        <time>2021-07-21T17:31:22Z</time>
      </trkpt>
      <trkpt lat="49.0945" lon="7.21105">
        <ele>350.54</ele>
        <time>2021-07-21T17:31:33Z</time>
      </trkpt>
      <trkpt lat="49.09362" lon="7.2076">
        <ele>347.65</ele>
        <time>2021-07-21T17:31:43Z</time>
      </trkpt>
      <trkpt lat="49.09298" lon="7.20254">
        <ele>345.73</ele>
        <time>2021-07-21T17:31:57Z</time>
      </trkpt>
      <trkpt lat="49.09286" lon="7.19924">
        <ele>343.81</ele>
        <time>2021-07-21T17:32:06Z</time>
      </trkpt>
      <trkpt lat="49.09266" lon="7.19676">
        <ele>342.37</ele>
        <time>2021-07-21T17:32:13Z</time>
      </trkpt>
      <trkpt lat="49.09248" lon="7.19537">
        <ele>339</ele>
        <time>2021-07-21T17:32:20Z</time>
      </trkpt>
      <trkpt lat="49.09248" lon="7.19537">
        <ele>339</ele>
        <time>2021-07-21T17:32:21Z</time>
      </trkpt>
      <trkpt lat="49.09246" lon="7.1953">
        <ele>339.48</ele>
        <time>2021-07-21T17:32:22Z</time>
      </trkpt>
      <trkpt lat="49.09255" lon="7.19518">
        <ele>339.48</ele>
        <time>2021-07-21T17:32:23Z</time>
      </trkpt>
      <trkpt lat="49.09267" lon="7.19496">
        <ele>339.48</ele>
        <time>2021-07-21T17:32:25Z</time>
      </trkpt>
      <trkpt lat="49.09267" lon="7.19496">
        <ele>339.48</ele>
        <time>2021-07-21T17:32:26Z</time>
      </trkpt>
      <trkpt lat="49.09268" lon="7.19471">
        <ele>339.48</ele>
        <time>2021-07-21T17:32:27Z</time>
      </trkpt>
      <trkpt lat="49.09264" lon="7.1946">
        <ele>339.48</ele>
        <time>2021-07-21T17:32:28Z</time>
      </trkpt>
      <trkpt lat="49.09264" lon="7.1946">
        <ele>339.48</ele>
        <time>2021-07-21T17:32:29Z</time>
      </trkpt>
      <trkpt lat="49.09259" lon="7.19455">
        <ele>339.48</ele>
        <time>2021-07-21T17:32:30Z</time>
      </trkpt>
      <trkpt lat="49.09254" lon="7.1945">
        <ele>339.48</ele>
        <time>2021-07-21T17:32:31Z</time>
      </trkpt>
      <trkpt lat="49.09246" lon="7.1945">
        <ele>339.48</ele>
        <time>2021-07-21T17:32:32Z</time>
      </trkpt>
      <trkpt lat="49.09239" lon="7.1945">
        <ele>339.48</ele>
        <time>2021-07-21T17:32:33Z</time>
      </trkpt>
      <trkpt lat="49.09234" lon="7.1945">
        <ele>339.48</ele>
        <time>2021-07-21T17:32:34Z</time>
      </trkpt>
      <trkpt lat="49.09224" lon="7.19436">
        <ele>339.48</ele>
        <time>2021-07-21T17:32:35Z</time>
      </trkpt>
      <trkpt lat="49.09222" lon="7.19426">
        <ele>339</ele>
        <time>2021-07-21T17:32:36Z</time>
      </trkpt>
      <trkpt lat="49.09219" lon="7.19415">
        <ele>339</ele>
        <time>2021-07-21T17:32:37Z</time>
      </trkpt>
      <trkpt lat="49.09217" lon="7.19403">
        <ele>338.52</ele>
        <time>2021-07-21T17:32:38Z</time>
      </trkpt>
      <trkpt lat="49.09215" lon="7.19392">
        <ele>338.04</ele>
        <time>2021-07-21T17:32:39Z</time>
      </trkpt>
      <trkpt lat="49.09214" lon="7.19379">
        <ele>337.56</ele>
        <time>2021-07-21T17:32:40Z</time>
      </trkpt>
      <trkpt lat="49.09214" lon="7.19366">
        <ele>337.56</ele>
        <time>2021-07-21T17:32:41Z</time>
      </trkpt>
      <trkpt lat="49.09212" lon="7.19337">
        <ele>336.6</ele>
        <time>2021-07-21T17:32:44Z</time>
      </trkpt>
      <trkpt lat="49.09205" lon="7.19245">
        <ele>334.2</ele>
        <time>2021-07-21T17:32:51Z</time>
      </trkpt>
      <trkpt lat="49.09172" lon="7.19119">
        <ele>330.35</ele>
        <time>2021-07-21T17:32:59Z</time>
      </trkpt>
      <trkpt lat="49.0913" lon="7.18942">
        <ele>322.18</ele>
        <time>2021-07-21T17:33:07Z</time>
      </trkpt>
      <trkpt lat="49.09126" lon="7.1892">
        <ele>322.66</ele>
        <time>2021-07-21T17:33:08Z</time>
      </trkpt>
      <trkpt lat="49.09116" lon="7.18883">
        <ele>323.62</ele>
        <time>2021-07-21T17:33:09Z</time>
      </trkpt>
      <trkpt lat="49.09077" lon="7.18799">
        <ele>321.22</ele>
        <time>2021-07-21T17:33:16Z</time>
      </trkpt>
      <trkpt lat="49.09059" lon="7.1876">
        <ele>320.26</ele>
        <time>2021-07-21T17:33:22Z</time>
      </trkpt>
      <trkpt lat="49.09059" lon="7.1876">
        <ele>319.3</ele>
        <time>2021-07-21T17:33:23Z</time>
      </trkpt>
      <trkpt lat="49.09058" lon="7.18759">
        <ele>319.3</ele>
        <time>2021-07-21T17:33:24Z</time>
      </trkpt>
      <trkpt lat="49.09058" lon="7.18759">
        <ele>319.3</ele>
        <time>2021-07-21T17:33:25Z</time>
      </trkpt>
      <trkpt lat="49.09059" lon="7.18761">
        <ele>318.81</ele>
        <time>2021-07-21T17:33:37Z</time>
      </trkpt>
      <trkpt lat="49.09059" lon="7.18761">
        <ele>319.3</ele>
        <time>2021-07-21T17:33:44Z</time>
      </trkpt>
      <trkpt lat="49.09059" lon="7.18762">
        <ele>319.3</ele>
        <time>2021-07-21T17:33:45Z</time>
      </trkpt>
      <trkpt lat="49.09061" lon="7.18764">
        <ele>319.3</ele>
        <time>2021-07-21T17:33:46Z</time>
      </trkpt>
      <trkpt lat="49.09066" lon="7.18773">
        <ele>320.26</ele>
        <time>2021-07-21T17:33:50Z</time>
      </trkpt>
      <trkpt lat="49.09104" lon="7.18857">
        <ele>323.14</ele>
        <time>2021-07-21T17:33:58Z</time>
      </trkpt>
      <trkpt lat="49.0914" lon="7.18995">
        <ele>326.02</ele>
        <time>2021-07-21T17:34:05Z</time>
      </trkpt>
      <trkpt lat="49.09149" lon="7.19038">
        <ele>327.47</ele>
        <time>2021-07-21T17:34:07Z</time>
      </trkpt>
      <trkpt lat="49.092" lon="7.19213">
        <ele>335.16</ele>
        <time>2021-07-21T17:34:15Z</time>
      </trkpt>
      <trkpt lat="49.09204" lon="7.19237">
        <ele>335.64</ele>
        <time>2021-07-21T17:34:16Z</time>
      </trkpt>
      <trkpt lat="49.09207" lon="7.1926">
        <ele>335.64</ele>
        <time>2021-07-21T17:34:17Z</time>
      </trkpt>
      <trkpt lat="49.09222" lon="7.19427">
        <ele>341.41</ele>
        <time>2021-07-21T17:34:25Z</time>
      </trkpt>
      <trkpt lat="49.09224" lon="7.19439">
        <ele>342.37</ele>
        <time>2021-07-21T17:34:26Z</time>
      </trkpt>
      <trkpt lat="49.09226" lon="7.19449">
        <ele>342.85</ele>
        <time>2021-07-21T17:34:27Z</time>
      </trkpt>
      <trkpt lat="49.09228" lon="7.19459">
        <ele>343.33</ele>
        <time>2021-07-21T17:34:28Z</time>
      </trkpt>
      <trkpt lat="49.0922" lon="7.19482">
        <ele>344.77</ele>
        <time>2021-07-21T17:34:30Z</time>
      </trkpt>
      <trkpt lat="49.09222" lon="7.19496">
        <ele>344.77</ele>
        <time>2021-07-21T17:34:31Z</time>
      </trkpt>
      <trkpt lat="49.09225" lon="7.19505">
        <ele>345.25</ele>
        <time>2021-07-21T17:34:32Z</time>
      </trkpt>
      <trkpt lat="49.0923" lon="7.19513">
        <ele>344.29</ele>
        <time>2021-07-21T17:34:33Z</time>
      </trkpt>
      <trkpt lat="49.09236" lon="7.19518">
        <ele>343.81</ele>
        <time>2021-07-21T17:34:34Z</time>
      </trkpt>
      <trkpt lat="49.09243" lon="7.19523">
        <ele>343.81</ele>
        <time>2021-07-21T17:34:35Z</time>
      </trkpt>
      <trkpt lat="49.09251" lon="7.19521">
        <ele>343.33</ele>
        <time>2021-07-21T17:34:36Z</time>
      </trkpt>
      <trkpt lat="49.09258" lon="7.19515">
        <ele>342.85</ele>
        <time>2021-07-21T17:34:37Z</time>
      </trkpt>
      <trkpt lat="49.09264" lon="7.19506">
        <ele>342.37</ele>
        <time>2021-07-21T17:34:38Z</time>
      </trkpt>
      <trkpt lat="49.09267" lon="7.19495">
        <ele>341.89</ele>
        <time>2021-07-21T17:34:39Z</time>
      </trkpt>
      <trkpt lat="49.09271" lon="7.19481">
        <ele>341.41</ele>
        <time>2021-07-21T17:34:40Z</time>
      </trkpt>
      <trkpt lat="49.09268" lon="7.19469">
        <ele>341.41</ele>
        <time>2021-07-21T17:34:41Z</time>
      </trkpt>
      <trkpt lat="49.09267" lon="7.19463">
        <ele>341.41</ele>
        <time>2021-07-21T17:34:42Z</time>
      </trkpt>
      <trkpt lat="49.09258" lon="7.19436">
        <ele>340.92</ele>
        <time>2021-07-21T17:34:43Z</time>
      </trkpt>
      <trkpt lat="49.09263" lon="7.1942">
        <ele>339.96</ele>
        <time>2021-07-21T17:34:44Z</time>
      </trkpt>
      <trkpt lat="49.09307" lon="7.19277">
        <ele>340.92</ele>
        <time>2021-07-21T17:34:52Z</time>
      </trkpt>
      <trkpt lat="49.09391" lon="7.19014">
        <ele>342.37</ele>
        <time>2021-07-21T17:35:02Z</time>
      </trkpt>
      <trkpt lat="49.09554" lon="7.18546">
        <ele>338.52</ele>
        <time>2021-07-21T17:35:20Z</time>
      </trkpt>
      <trkpt lat="49.09801" lon="7.17821">
        <ele>341.89</ele>
        <time>2021-07-21T17:35:45Z</time>
      </trkpt>
      <trkpt lat="49.09894" lon="7.17548">
        <ele>344.77</ele>
        <time>2021-07-21T17:35:56Z</time>
      </trkpt>
      <trkpt lat="49.0999" lon="7.1727">
        <ele>344.77</ele>
        <time>2021-07-21T17:36:08Z</time>
      </trkpt>
      <trkpt lat="49.10015" lon="7.17198">
        <ele>344.29</ele>
        <time>2021-07-21T17:36:15Z</time>
      </trkpt>
      <trkpt lat="49.10017" lon="7.17192">
        <ele>344.29</ele>
        <time>2021-07-21T17:36:16Z</time>
      </trkpt>
      <trkpt lat="49.10025" lon="7.17191">
        <ele>344.29</ele>
        <time>2021-07-21T17:36:17Z</time>
      </trkpt>
      <trkpt lat="49.10029" lon="7.17191">
        <ele>343.81</ele>
        <time>2021-07-21T17:36:18Z</time>
      </trkpt>
      <trkpt lat="49.10038" lon="7.17186">
        <ele>343.33</ele>
        <time>2021-07-21T17:36:19Z</time>
      </trkpt>
      <trkpt lat="49.10041" lon="7.17173">
        <ele>342.85</ele>
        <time>2021-07-21T17:36:20Z</time>
      </trkpt>
      <trkpt lat="49.10041" lon="7.17165">
        <ele>342.37</ele>
        <time>2021-07-21T17:36:21Z</time>
      </trkpt>
      <trkpt lat="49.10041" lon="7.17158">
        <ele>342.37</ele>
        <time>2021-07-21T17:36:22Z</time>
      </trkpt>
      <trkpt lat="49.10039" lon="7.1714">
        <ele>341.89</ele>
        <time>2021-07-21T17:36:23Z</time>
      </trkpt>
      <trkpt lat="49.10043" lon="7.17131">
        <ele>341.41</ele>
        <time>2021-07-21T17:36:24Z</time>
      </trkpt>
      <trkpt lat="49.10047" lon="7.17119">
        <ele>340.92</ele>
        <time>2021-07-21T17:36:25Z</time>
      </trkpt>
      <trkpt lat="49.10112" lon="7.16979">
        <ele>337.08</ele>
        <time>2021-07-21T17:36:34Z</time>
      </trkpt>
      <trkpt lat="49.10225" lon="7.16765">
        <ele>332.75</ele>
        <time>2021-07-21T17:36:44Z</time>
      </trkpt>
      <trkpt lat="49.10391" lon="7.16424">
        <ele>321.7</ele>
        <time>2021-07-21T17:36:58Z</time>
      </trkpt>
      <trkpt lat="49.1058" lon="7.15827">
        <ele>329.87</ele>
        <time>2021-07-21T17:37:19Z</time>
      </trkpt>
      <trkpt lat="49.10602" lon="7.15704">
        <ele>329.39</ele>
        <time>2021-07-21T17:37:23Z</time>
      </trkpt>
      <trkpt lat="49.10604" lon="7.15673">
        <ele>329.39</ele>
        <time>2021-07-21T17:37:24Z</time>
      </trkpt>
      <trkpt lat="49.10623" lon="7.15393">
        <ele>322.66</ele>
        <time>2021-07-21T17:37:33Z</time>
      </trkpt>
      <trkpt lat="49.10662" lon="7.15208">
        <ele>319.78</ele>
        <time>2021-07-21T17:37:40Z</time>
      </trkpt>
      <trkpt lat="49.10665" lon="7.15181">
        <ele>319.78</ele>
        <time>2021-07-21T17:37:41Z</time>
      </trkpt>
      <trkpt lat="49.10667" lon="7.15155">
        <ele>319.78</ele>
        <time>2021-07-21T17:37:42Z</time>
      </trkpt>
      <trkpt lat="49.10666" lon="7.15129">
        <ele>319.3</ele>
        <time>2021-07-21T17:37:43Z</time>
      </trkpt>
      <trkpt lat="49.10663" lon="7.15102">
        <ele>318.81</ele>
        <time>2021-07-21T17:37:44Z</time>
      </trkpt>
      <trkpt lat="49.1066" lon="7.15074">
        <ele>318.81</ele>
        <time>2021-07-21T17:37:45Z</time>
      </trkpt>
      <trkpt lat="49.10656" lon="7.15048">
        <ele>318.33</ele>
        <time>2021-07-21T17:37:46Z</time>
      </trkpt>
      <trkpt lat="49.1065" lon="7.15023">
        <ele>317.85</ele>
        <time>2021-07-21T17:37:47Z</time>
      </trkpt>
      <trkpt lat="49.10644" lon="7.15">
        <ele>317.37</ele>
        <time>2021-07-21T17:37:48Z</time>
      </trkpt>
      <trkpt lat="49.10636" lon="7.14978">
        <ele>316.41</ele>
        <time>2021-07-21T17:37:49Z</time>
      </trkpt>
      <trkpt lat="49.10584" lon="7.14768">
        <ele>309.68</ele>
        <time>2021-07-21T17:37:58Z</time>
      </trkpt>
      <trkpt lat="49.10596" lon="7.14599">
        <ele>304.39</ele>
        <time>2021-07-21T17:38:04Z</time>
      </trkpt>
      <trkpt lat="49.10636" lon="7.14376">
        <ele>301.99</ele>
        <time>2021-07-21T17:38:12Z</time>
      </trkpt>
      <trkpt lat="49.10633" lon="7.1394">
        <ele>289.49</ele>
        <time>2021-07-21T17:38:26Z</time>
      </trkpt>
      <trkpt lat="49.10668" lon="7.13617">
        <ele>283.73</ele>
        <time>2021-07-21T17:38:39Z</time>
      </trkpt>
      <trkpt lat="49.10727" lon="7.13406">
        <ele>278.44</ele>
        <time>2021-07-21T17:38:47Z</time>
      </trkpt>
      <trkpt lat="49.10878" lon="7.12957">
        <ele>274.11</ele>
        <time>2021-07-21T17:39:03Z</time>
      </trkpt>
      <trkpt lat="49.11034" lon="7.12508">
        <ele>271.23</ele>
        <time>2021-07-21T17:39:20Z</time>
      </trkpt>
      <trkpt lat="49.11208" lon="7.12011">
        <ele>264.5</ele>
        <time>2021-07-21T17:39:39Z</time>
      </trkpt>
      <trkpt lat="49.11344" lon="7.11621">
        <ele>253.93</ele>
        <time>2021-07-21T17:39:54Z</time>
      </trkpt>
      <trkpt lat="49.11416" lon="7.11345">
        <ele>252.96</ele>
        <time>2021-07-21T17:40:05Z</time>
      </trkpt>
      <trkpt lat="49.11527" lon="7.1089">
        <ele>251.52</ele>
        <time>2021-07-21T17:40:27Z</time>
      </trkpt>
      <trkpt lat="49.11626" lon="7.10475">
        <ele>241.43</ele>
        <time>2021-07-21T17:40:49Z</time>
      </trkpt>
      <trkpt lat="49.11682" lon="7.10232">
        <ele>236.14</ele>
        <time>2021-07-21T17:41:02Z</time>
      </trkpt>
      <trkpt lat="49.11683" lon="7.10217">
        <ele>236.14</ele>
        <time>2021-07-21T17:41:03Z</time>
      </trkpt>
      <trkpt lat="49.11685" lon="7.10188">
        <ele>235.66</ele>
        <time>2021-07-21T17:41:04Z</time>
      </trkpt>
      <trkpt lat="49.11685" lon="7.10188">
        <ele>235.66</ele>
        <time>2021-07-21T17:41:05Z</time>
      </trkpt>
      <trkpt lat="49.11686" lon="7.10148">
        <ele>235.66</ele>
        <time>2021-07-21T17:41:09Z</time>
      </trkpt>
      <trkpt lat="49.11687" lon="7.10139">
        <ele>235.66</ele>
        <time>2021-07-21T17:41:10Z</time>
      </trkpt>
      <trkpt lat="49.11689" lon="7.1013">
        <ele>235.66</ele>
        <time>2021-07-21T17:41:11Z</time>
      </trkpt>
      <trkpt lat="49.11693" lon="7.10122">
        <ele>235.18</ele>
        <time>2021-07-21T17:41:12Z</time>
      </trkpt>
      <trkpt lat="49.11697" lon="7.10113">
        <ele>234.7</ele>
        <time>2021-07-21T17:41:13Z</time>
      </trkpt>
      <trkpt lat="49.11701" lon="7.10103">
        <ele>234.7</ele>
        <time>2021-07-21T17:41:14Z</time>
      </trkpt>
      <trkpt lat="49.11705" lon="7.10093">
        <ele>234.7</ele>
        <time>2021-07-21T17:41:15Z</time>
      </trkpt>
      <trkpt lat="49.11705" lon="7.10077">
        <ele>234.7</ele>
        <time>2021-07-21T17:41:16Z</time>
      </trkpt>
      <trkpt lat="49.11705" lon="7.10066">
        <ele>234.22</ele>
        <time>2021-07-21T17:41:17Z</time>
      </trkpt>
      <trkpt lat="49.11704" lon="7.10058">
        <ele>234.7</ele>
        <time>2021-07-21T17:41:18Z</time>
      </trkpt>
      <trkpt lat="49.11709" lon="7.10046">
        <ele>234.22</ele>
        <time>2021-07-21T17:41:19Z</time>
      </trkpt>
      <trkpt lat="49.11713" lon="7.10037">
        <ele>234.22</ele>
        <time>2021-07-21T17:41:20Z</time>
      </trkpt>
      <trkpt lat="49.11717" lon="7.10028">
        <ele>234.22</ele>
        <time>2021-07-21T17:41:21Z</time>
      </trkpt>
      <trkpt lat="49.11721" lon="7.1002">
        <ele>234.22</ele>
        <time>2021-07-21T17:41:22Z</time>
      </trkpt>
      <trkpt lat="49.11725" lon="7.10011">
        <ele>233.74</ele>
        <time>2021-07-21T17:41:23Z</time>
      </trkpt>
      <trkpt lat="49.11732" lon="7.09993">
        <ele>233.74</ele>
        <time>2021-07-21T17:41:24Z</time>
      </trkpt>
      <trkpt lat="49.11732" lon="7.09993">
        <ele>233.26</ele>
        <time>2021-07-21T17:41:25Z</time>
      </trkpt>
      <trkpt lat="49.11736" lon="7.09983">
        <ele>232.78</ele>
        <time>2021-07-21T17:41:26Z</time>
      </trkpt>
      <trkpt lat="49.11744" lon="7.0996">
        <ele>232.3</ele>
        <time>2021-07-21T17:41:27Z</time>
      </trkpt>
      <trkpt lat="49.11744" lon="7.0996">
        <ele>232.78</ele>
        <time>2021-07-21T17:41:28Z</time>
      </trkpt>
      <trkpt lat="49.1179" lon="7.09765">
        <ele>228.93</ele>
        <time>2021-07-21T17:41:40Z</time>
      </trkpt>
      <trkpt lat="49.11857" lon="7.09481">
        <ele>228.93</ele>
        <time>2021-07-21T17:41:57Z</time>
      </trkpt>
      <trkpt lat="49.11923" lon="7.09163">
        <ele>227.49</ele>
        <time>2021-07-21T17:42:15Z</time>
      </trkpt>
      <trkpt lat="49.11944" lon="7.09048">
        <ele>225.57</ele>
        <time>2021-07-21T17:42:22Z</time>
      </trkpt>
      <trkpt lat="49.11949" lon="7.09036">
        <ele>226.53</ele>
        <time>2021-07-21T17:42:23Z</time>
      </trkpt>
      <trkpt lat="49.11956" lon="7.09023">
        <ele>227.49</ele>
        <time>2021-07-21T17:42:24Z</time>
      </trkpt>
      <trkpt lat="49.11961" lon="7.09011">
        <ele>228.93</ele>
        <time>2021-07-21T17:42:25Z</time>
      </trkpt>
      <trkpt lat="49.11969" lon="7.09005">
        <ele>229.41</ele>
        <time>2021-07-21T17:42:26Z</time>
      </trkpt>
      <trkpt lat="49.11975" lon="7.08999">
        <ele>229.41</ele>
        <time>2021-07-21T17:42:27Z</time>
      </trkpt>
      <trkpt lat="49.1198" lon="7.08995">
        <ele>229.89</ele>
        <time>2021-07-21T17:42:28Z</time>
      </trkpt>
      <trkpt lat="49.11984" lon="7.08991">
        <ele>229.89</ele>
        <time>2021-07-21T17:42:29Z</time>
      </trkpt>
      <trkpt lat="49.11992" lon="7.08984">
        <ele>228.93</ele>
        <time>2021-07-21T17:42:32Z</time>
      </trkpt>
      <trkpt lat="49.12" lon="7.08977">
        <ele>228.93</ele>
        <time>2021-07-21T17:42:33Z</time>
      </trkpt>
      <trkpt lat="49.12" lon="7.08977">
        <ele>228.45</ele>
        <time>2021-07-21T17:42:34Z</time>
      </trkpt>
      <trkpt lat="49.12002" lon="7.08966">
        <ele>228.45</ele>
        <time>2021-07-21T17:42:35Z</time>
      </trkpt>
      <trkpt lat="49.12004" lon="7.08956">
        <ele>227.97</ele>
        <time>2021-07-21T17:42:36Z</time>
      </trkpt>
      <trkpt lat="49.12004" lon="7.08947">
        <ele>227.97</ele>
        <time>2021-07-21T17:42:37Z</time>
      </trkpt>
      <trkpt lat="49.12002" lon="7.08936">
        <ele>227.97</ele>
        <time>2021-07-21T17:42:38Z</time>
      </trkpt>
      <trkpt lat="49.11984" lon="7.08836">
        <ele>227.01</ele>
        <time>2021-07-21T17:42:46Z</time>
      </trkpt>
      <trkpt lat="49.11982" lon="7.08823">
        <ele>227.49</ele>
        <time>2021-07-21T17:42:47Z</time>
      </trkpt>
      <trkpt lat="49.11977" lon="7.08809">
        <ele>227.01</ele>
        <time>2021-07-21T17:42:48Z</time>
      </trkpt>
      <trkpt lat="49.11919" lon="7.08673">
        <ele>225.09</ele>
        <time>2021-07-21T17:43:01Z</time>
      </trkpt>
      <trkpt lat="49.11902" lon="7.0863">
        <ele>226.05</ele>
        <time>2021-07-21T17:43:10Z</time>
      </trkpt>
      <trkpt lat="49.11898" lon="7.0862">
        <ele>226.05</ele>
        <time>2021-07-21T17:43:33Z</time>
      </trkpt>
      <trkpt lat="49.11867" lon="7.08542">
        <ele>225.57</ele>
        <time>2021-07-21T17:43:44Z</time>
      </trkpt>
      <trkpt lat="49.11825" lon="7.08442">
        <ele>225.57</ele>
        <time>2021-07-21T17:43:56Z</time>
      </trkpt>
      <trkpt lat="49.11773" lon="7.08317">
        <ele>226.05</ele>
        <time>2021-07-21T17:44:06Z</time>
      </trkpt>
      <trkpt lat="49.11745" lon="7.08249">
        <ele>226.53</ele>
        <time>2021-07-21T17:44:13Z</time>
      </trkpt>
      <trkpt lat="49.11716" lon="7.08179">
        <ele>227.49</ele>
        <time>2021-07-21T17:44:24Z</time>
      </trkpt>
      <trkpt lat="49.11705" lon="7.08153">
        <ele>227.49</ele>
        <time>2021-07-21T17:44:34Z</time>
      </trkpt>
      <trkpt lat="49.11698" lon="7.08137">
        <ele>227.49</ele>
        <time>2021-07-21T17:44:44Z</time>
      </trkpt>
      <trkpt lat="49.11688" lon="7.08113">
        <ele>227.97</ele>
        <time>2021-07-21T17:45:12Z</time>
      </trkpt>
      <trkpt lat="49.11666" lon="7.0805">
        <ele>228.93</ele>
        <time>2021-07-21T17:45:20Z</time>
      </trkpt>
      <trkpt lat="49.11666" lon="7.0805">
        <ele>229.41</ele>
        <time>2021-07-21T17:45:42Z</time>
      </trkpt>
      <trkpt lat="49.11656" lon="7.08022">
        <ele>229.41</ele>
        <time>2021-07-21T17:46:15Z</time>
      </trkpt>
      <trkpt lat="49.11626" lon="7.07905">
        <ele>229.89</ele>
        <time>2021-07-21T17:46:24Z</time>
      </trkpt>
      <trkpt lat="49.116" lon="7.07801">
        <ele>229.89</ele>
        <time>2021-07-21T17:46:34Z</time>
      </trkpt>
      <trkpt lat="49.11571" lon="7.07639">
        <ele>227.01</ele>
        <time>2021-07-21T17:46:45Z</time>
      </trkpt>
      <trkpt lat="49.11542" lon="7.07447">
        <ele>220.76</ele>
        <time>2021-07-21T17:46:56Z</time>
      </trkpt>
      <trkpt lat="49.11521" lon="7.07323">
        <ele>214.51</ele>
        <time>2021-07-21T17:47:05Z</time>
      </trkpt>
      <trkpt lat="49.11482" lon="7.07144">
        <ele>211.15</ele>
        <time>2021-07-21T17:47:18Z</time>
      </trkpt>
      <trkpt lat="49.11478" lon="7.07129">
        <ele>211.15</ele>
        <time>2021-07-21T17:47:25Z</time>
      </trkpt>
      <trkpt lat="49.11476" lon="7.0712">
        <ele>211.15</ele>
        <time>2021-07-21T17:47:46Z</time>
      </trkpt>
      <trkpt lat="49.11475" lon="7.07115">
        <ele>211.15</ele>
        <time>2021-07-21T17:47:47Z</time>
      </trkpt>
      <trkpt lat="49.11483" lon="7.07107">
        <ele>211.15</ele>
        <time>2021-07-21T17:47:48Z</time>
      </trkpt>
      <trkpt lat="49.11483" lon="7.07107">
        <ele>211.15</ele>
        <time>2021-07-21T17:47:49Z</time>
      </trkpt>
      <trkpt lat="49.1149" lon="7.071">
        <ele>210.67</ele>
        <time>2021-07-21T17:47:50Z</time>
      </trkpt>
      <trkpt lat="49.1149" lon="7.071">
        <ele>210.19</ele>
        <time>2021-07-21T17:47:51Z</time>
      </trkpt>
      <trkpt lat="49.11549" lon="7.07046">
        <ele>209.22</ele>
        <time>2021-07-21T17:48:03Z</time>
      </trkpt>
      <trkpt lat="49.11613" lon="7.06995">
        <ele>206.82</ele>
        <time>2021-07-21T17:48:13Z</time>
      </trkpt>
      <trkpt lat="49.11619" lon="7.06987">
        <ele>206.34</ele>
        <time>2021-07-21T17:48:14Z</time>
      </trkpt>
      <trkpt lat="49.11623" lon="7.06977">
        <ele>205.86</ele>
        <time>2021-07-21T17:48:15Z</time>
      </trkpt>
      <trkpt lat="49.11632" lon="7.06956">
        <ele>205.86</ele>
        <time>2021-07-21T17:48:16Z</time>
      </trkpt>
      <trkpt lat="49.11632" lon="7.06956">
        <ele>204.42</ele>
        <time>2021-07-21T17:48:17Z</time>
      </trkpt>
      <trkpt lat="49.11636" lon="7.06945">
        <ele>203.94</ele>
        <time>2021-07-21T17:48:18Z</time>
      </trkpt>
      <trkpt lat="49.1164" lon="7.06932">
        <ele>202.98</ele>
        <time>2021-07-21T17:48:19Z</time>
      </trkpt>
      <trkpt lat="49.11667" lon="7.06804">
        <ele>200.57</ele>
        <time>2021-07-21T17:48:27Z</time>
      </trkpt>
      <trkpt lat="49.11666" lon="7.06791">
        <ele>200.57</ele>
        <time>2021-07-21T17:48:28Z</time>
      </trkpt>
      <trkpt lat="49.11666" lon="7.06791">
        <ele>200.57</ele>
        <time>2021-07-21T17:48:29Z</time>
      </trkpt>
      <trkpt lat="49.11664" lon="7.06779">
        <ele>201.05</ele>
        <time>2021-07-21T17:48:30Z</time>
      </trkpt>
      <trkpt lat="49.11661" lon="7.06766">
        <ele>202.01</ele>
        <time>2021-07-21T17:48:31Z</time>
      </trkpt>
      <trkpt lat="49.11626" lon="7.06626">
        <ele>204.9</ele>
        <time>2021-07-21T17:48:41Z</time>
      </trkpt>
      <trkpt lat="49.11624" lon="7.0661">
        <ele>203.46</ele>
        <time>2021-07-21T17:48:42Z</time>
      </trkpt>
      <trkpt lat="49.11623" lon="7.06594">
        <ele>202.98</ele>
        <time>2021-07-21T17:48:43Z</time>
      </trkpt>
      <trkpt lat="49.11623" lon="7.06578">
        <ele>203.94</ele>
        <time>2021-07-21T17:48:44Z</time>
      </trkpt>
      <trkpt lat="49.11627" lon="7.06563">
        <ele>203.94</ele>
        <time>2021-07-21T17:48:45Z</time>
      </trkpt>
      <trkpt lat="49.11632" lon="7.06547">
        <ele>203.94</ele>
        <time>2021-07-21T17:48:46Z</time>
      </trkpt>
      <trkpt lat="49.11637" lon="7.06536">
        <ele>204.9</ele>
        <time>2021-07-21T17:48:47Z</time>
      </trkpt>
      <trkpt lat="49.11644" lon="7.06527">
        <ele>205.86</ele>
        <time>2021-07-21T17:48:48Z</time>
      </trkpt>
      <trkpt lat="49.11649" lon="7.0652">
        <ele>206.34</ele>
        <time>2021-07-21T17:48:49Z</time>
      </trkpt>
      <trkpt lat="49.11706" lon="7.06436">
        <ele>212.11</ele>
        <time>2021-07-21T17:49:00Z</time>
      </trkpt>
      <trkpt lat="49.11709" lon="7.06431">
        <ele>212.11</ele>
        <time>2021-07-21T17:49:01Z</time>
      </trkpt>
      <trkpt lat="49.11709" lon="7.06431">
        <ele>212.11</ele>
        <time>2021-07-21T17:49:02Z</time>
      </trkpt>
      <trkpt lat="49.11711" lon="7.06429">
        <ele>212.11</ele>
        <time>2021-07-21T17:49:17Z</time>
      </trkpt>
      <trkpt lat="49.11725" lon="7.06409">
        <ele>213.07</ele>
        <time>2021-07-21T17:49:57Z</time>
      </trkpt>
      <trkpt lat="49.11774" lon="7.0634">
        <ele>216.43</ele>
        <time>2021-07-21T17:50:05Z</time>
      </trkpt>
      <trkpt lat="49.11872" lon="7.06199">
        <ele>216.43</ele>
        <time>2021-07-21T17:50:18Z</time>
      </trkpt>
      <trkpt lat="49.11984" lon="7.06033">
        <ele>215.47</ele>
        <time>2021-07-21T17:50:32Z</time>
      </trkpt>
      <trkpt lat="49.11997" lon="7.06009">
        <ele>216.91</ele>
        <time>2021-07-21T17:50:35Z</time>
      </trkpt>
      <trkpt lat="49.12003" lon="7.06007">
        <ele>217.4</ele>
        <time>2021-07-21T17:50:36Z</time>
      </trkpt>
      <trkpt lat="49.12018" lon="7.06003">
        <ele>217.88</ele>
        <time>2021-07-21T17:50:38Z</time>
      </trkpt>
      <trkpt lat="49.12018" lon="7.06003">
        <ele>218.36</ele>
        <time>2021-07-21T17:50:39Z</time>
      </trkpt>
      <trkpt lat="49.1202" lon="7.05996">
        <ele>218.36</ele>
        <time>2021-07-21T17:50:40Z</time>
      </trkpt>
      <trkpt lat="49.12022" lon="7.05992">
        <ele>218.84</ele>
        <time>2021-07-21T17:50:41Z</time>
      </trkpt>
      <trkpt lat="49.12022" lon="7.05992">
        <ele>219.32</ele>
        <time>2021-07-21T17:50:42Z</time>
      </trkpt>
      <trkpt lat="49.12022" lon="7.05992">
        <ele>219.32</ele>
        <time>2021-07-21T17:50:43Z</time>
      </trkpt>
      <trkpt lat="49.12027" lon="7.05976">
        <ele>219.32</ele>
        <time>2021-07-21T17:50:44Z</time>
      </trkpt>
      <trkpt lat="49.1203" lon="7.05973">
        <ele>219.32</ele>
        <time>2021-07-21T17:50:45Z</time>
      </trkpt>
      <trkpt lat="49.12035" lon="7.0597">
        <ele>219.32</ele>
        <time>2021-07-21T17:50:46Z</time>
      </trkpt>
      <trkpt lat="49.1204" lon="7.05966">
        <ele>219.32</ele>
        <time>2021-07-21T17:50:47Z</time>
      </trkpt>
      <trkpt lat="49.12123" lon="7.05882">
        <ele>216.91</ele>
        <time>2021-07-21T17:50:57Z</time>
      </trkpt>
      <trkpt lat="49.12252" lon="7.05749">
        <ele>214.51</ele>
        <time>2021-07-21T17:51:09Z</time>
      </trkpt>
      <trkpt lat="49.12334" lon="7.05609">
        <ele>219.32</ele>
        <time>2021-07-21T17:51:18Z</time>
      </trkpt>
      <trkpt lat="49.12436" lon="7.0538">
        <ele>221.24</ele>
        <time>2021-07-21T17:51:30Z</time>
      </trkpt>
      <trkpt lat="49.12498" lon="7.0516">
        <ele>222.2</ele>
        <time>2021-07-21T17:51:41Z</time>
      </trkpt>
      <trkpt lat="49.12565" lon="7.04955">
        <ele>220.28</ele>
        <time>2021-07-21T17:51:54Z</time>
      </trkpt>
      <trkpt lat="49.12669" lon="7.04784">
        <ele>214.51</ele>
        <time>2021-07-21T17:52:06Z</time>
      </trkpt>
      <trkpt lat="49.12773" lon="7.04688">
        <ele>206.34</ele>
        <time>2021-07-21T17:52:15Z</time>
      </trkpt>
      <trkpt lat="49.12837" lon="7.04659">
        <ele>203.46</ele>
        <time>2021-07-21T17:52:19Z</time>
      </trkpt>
      <trkpt lat="49.12852" lon="7.04659">
        <ele>202.98</ele>
        <time>2021-07-21T17:52:20Z</time>
      </trkpt>
      <trkpt lat="49.12884" lon="7.04657">
        <ele>202.49</ele>
        <time>2021-07-21T17:52:21Z</time>
      </trkpt>
      <trkpt lat="49.13052" lon="7.04692">
        <ele>199.61</ele>
        <time>2021-07-21T17:52:32Z</time>
      </trkpt>
      <trkpt lat="49.13263" lon="7.0474">
        <ele>198.65</ele>
        <time>2021-07-21T17:52:44Z</time>
      </trkpt>
      <trkpt lat="49.13502" lon="7.04771">
        <ele>200.57</ele>
        <time>2021-07-21T17:52:58Z</time>
      </trkpt>
      <trkpt lat="49.13696" lon="7.04747">
        <ele>199.61</ele>
        <time>2021-07-21T17:53:10Z</time>
      </trkpt>
      <trkpt lat="49.13972" lon="7.0464">
        <ele>204.9</ele>
        <time>2021-07-21T17:53:28Z</time>
      </trkpt>
      <trkpt lat="49.14172" lon="7.04586">
        <ele>205.86</ele>
        <time>2021-07-21T17:53:41Z</time>
      </trkpt>
      <trkpt lat="49.14313" lon="7.04581">
        <ele>209.7</ele>
        <time>2021-07-21T17:53:51Z</time>
      </trkpt>
      <trkpt lat="49.14485" lon="7.04549">
        <ele>204.9</ele>
        <time>2021-07-21T17:54:03Z</time>
      </trkpt>
      <trkpt lat="49.14624" lon="7.04518">
        <ele>204.9</ele>
        <time>2021-07-21T17:54:15Z</time>
      </trkpt>
      <trkpt lat="49.14779" lon="7.04424">
        <ele>208.74</ele>
        <time>2021-07-21T17:54:28Z</time>
      </trkpt>
      <trkpt lat="49.14844" lon="7.04346">
        <ele>208.26</ele>
        <time>2021-07-21T17:54:36Z</time>
      </trkpt>
      <trkpt lat="49.14953" lon="7.04205">
        <ele>207.3</ele>
        <time>2021-07-21T17:54:47Z</time>
      </trkpt>
      <trkpt lat="49.15056" lon="7.04066">
        <ele>206.34</ele>
        <time>2021-07-21T17:54:58Z</time>
      </trkpt>
      <trkpt lat="49.15067" lon="7.04045">
        <ele>205.86</ele>
        <time>2021-07-21T17:55:00Z</time>
      </trkpt>
      <trkpt lat="49.15071" lon="7.04037">
        <ele>205.38</ele>
        <time>2021-07-21T17:55:01Z</time>
      </trkpt>
      <trkpt lat="49.15073" lon="7.04031">
        <ele>205.38</ele>
        <time>2021-07-21T17:55:02Z</time>
      </trkpt>
      <trkpt lat="49.15075" lon="7.04009">
        <ele>204.42</ele>
        <time>2021-07-21T17:55:06Z</time>
      </trkpt>
      <trkpt lat="49.15082" lon="7.04006">
        <ele>204.42</ele>
        <time>2021-07-21T17:55:07Z</time>
      </trkpt>
      <trkpt lat="49.15089" lon="7.04">
        <ele>203.94</ele>
        <time>2021-07-21T17:55:08Z</time>
      </trkpt>
      <trkpt lat="49.1509" lon="7.03983">
        <ele>203.94</ele>
        <time>2021-07-21T17:55:09Z</time>
      </trkpt>
      <trkpt lat="49.1509" lon="7.03983">
        <ele>203.94</ele>
        <time>2021-07-21T17:55:10Z</time>
      </trkpt>
      <trkpt lat="49.1509" lon="7.03977">
        <ele>203.94</ele>
        <time>2021-07-21T17:55:11Z</time>
      </trkpt>
      <trkpt lat="49.15083" lon="7.03954">
        <ele>204.42</ele>
        <time>2021-07-21T17:55:12Z</time>
      </trkpt>
      <trkpt lat="49.15083" lon="7.03954">
        <ele>204.42</ele>
        <time>2021-07-21T17:55:13Z</time>
      </trkpt>
      <trkpt lat="49.15085" lon="7.03931">
        <ele>204.42</ele>
        <time>2021-07-21T17:55:14Z</time>
      </trkpt>
      <trkpt lat="49.15085" lon="7.03931">
        <ele>204.42</ele>
        <time>2021-07-21T17:55:15Z</time>
      </trkpt>
      <trkpt lat="49.15088" lon="7.03919">
        <ele>203.94</ele>
        <time>2021-07-21T17:55:16Z</time>
      </trkpt>
      <trkpt lat="49.15093" lon="7.03906">
        <ele>204.42</ele>
        <time>2021-07-21T17:55:17Z</time>
      </trkpt>
      <trkpt lat="49.15098" lon="7.03893">
        <ele>204.9</ele>
        <time>2021-07-21T17:55:18Z</time>
      </trkpt>
      <trkpt lat="49.15106" lon="7.03885">
        <ele>203.94</ele>
        <time>2021-07-21T17:55:19Z</time>
      </trkpt>
      <trkpt lat="49.15124" lon="7.03868">
        <ele>203.46</ele>
        <time>2021-07-21T17:55:20Z</time>
      </trkpt>
      <trkpt lat="49.15165" lon="7.03829">
        <ele>202.01</ele>
        <time>2021-07-21T17:55:25Z</time>
      </trkpt>
      <trkpt lat="49.15243" lon="7.03708">
        <ele>197.21</ele>
        <time>2021-07-21T17:55:33Z</time>
      </trkpt>
      <trkpt lat="49.15361" lon="7.03529">
        <ele>201.05</ele>
        <time>2021-07-21T17:55:43Z</time>
      </trkpt>
      <trkpt lat="49.15532" lon="7.03376">
        <ele>203.94</ele>
        <time>2021-07-21T17:55:54Z</time>
      </trkpt>
      <trkpt lat="49.15694" lon="7.03265">
        <ele>200.57</ele>
        <time>2021-07-21T17:56:04Z</time>
      </trkpt>
      <trkpt lat="49.15835" lon="7.03245">
        <ele>197.69</ele>
        <time>2021-07-21T17:56:12Z</time>
      </trkpt>
      <trkpt lat="49.1597" lon="7.03294">
        <ele>195.77</ele>
        <time>2021-07-21T17:56:19Z</time>
      </trkpt>
      <trkpt lat="49.16145" lon="7.03395">
        <ele>196.73</ele>
        <time>2021-07-21T17:56:28Z</time>
      </trkpt>
      <trkpt lat="49.16269" lon="7.03402">
        <ele>198.65</ele>
        <time>2021-07-21T17:56:34Z</time>
      </trkpt>
      <trkpt lat="49.1643" lon="7.03331">
        <ele>200.09</ele>
        <time>2021-07-21T17:56:42Z</time>
      </trkpt>
      <trkpt lat="49.16568" lon="7.03185">
        <ele>199.13</ele>
        <time>2021-07-21T17:56:50Z</time>
      </trkpt>
      <trkpt lat="49.16693" lon="7.0299">
        <ele>199.61</ele>
        <time>2021-07-21T17:56:59Z</time>
      </trkpt>
      <trkpt lat="49.16822" lon="7.02898">
        <ele>199.61</ele>
        <time>2021-07-21T17:57:06Z</time>
      </trkpt>
      <trkpt lat="49.17006" lon="7.02846">
        <ele>203.94</ele>
        <time>2021-07-21T17:57:18Z</time>
      </trkpt>
      <trkpt lat="49.17205" lon="7.02859">
        <ele>205.86</ele>
        <time>2021-07-21T17:57:30Z</time>
      </trkpt>
      <trkpt lat="49.17443" lon="7.02952">
        <ele>202.49</ele>
        <time>2021-07-21T17:57:42Z</time>
      </trkpt>
      <trkpt lat="49.17656" lon="7.03101">
        <ele>200.57</ele>
        <time>2021-07-21T17:57:55Z</time>
      </trkpt>
      <trkpt lat="49.18016" lon="7.03392">
        <ele>202.01</ele>
        <time>2021-07-21T17:58:16Z</time>
      </trkpt>
      <trkpt lat="49.18185" lon="7.03471">
        <ele>203.94</ele>
        <time>2021-07-21T17:58:25Z</time>
      </trkpt>
      <trkpt lat="49.18372" lon="7.03471">
        <ele>201.05</ele>
        <time>2021-07-21T17:58:34Z</time>
      </trkpt>
      <trkpt lat="49.18612" lon="7.03437">
        <ele>198.65</ele>
        <time>2021-07-21T17:58:46Z</time>
      </trkpt>
      <trkpt lat="49.18801" lon="7.03453">
        <ele>199.13</ele>
        <time>2021-07-21T17:58:57Z</time>
      </trkpt>
      <trkpt lat="49.19026" lon="7.03556">
        <ele>199.13</ele>
        <time>2021-07-21T17:59:11Z</time>
      </trkpt>
      <trkpt lat="49.19061" lon="7.03567">
        <ele>200.09</ele>
        <time>2021-07-21T17:59:13Z</time>
      </trkpt>
      <trkpt lat="49.19077" lon="7.03571">
        <ele>199.61</ele>
        <time>2021-07-21T17:59:14Z</time>
      </trkpt>
      <trkpt lat="49.1913" lon="7.03572">
        <ele>200.09</ele>
        <time>2021-07-21T17:59:17Z</time>
      </trkpt>
      <trkpt lat="49.19148" lon="7.03568">
        <ele>200.57</ele>
        <time>2021-07-21T17:59:18Z</time>
      </trkpt>
      <trkpt lat="49.19165" lon="7.0356">
        <ele>200.57</ele>
        <time>2021-07-21T17:59:19Z</time>
      </trkpt>
      <trkpt lat="49.19183" lon="7.0355">
        <ele>200.57</ele>
        <time>2021-07-21T17:59:20Z</time>
      </trkpt>
      <trkpt lat="49.192" lon="7.0354">
        <ele>201.05</ele>
        <time>2021-07-21T17:59:21Z</time>
      </trkpt>
      <trkpt lat="49.19216" lon="7.03528">
        <ele>201.05</ele>
        <time>2021-07-21T17:59:22Z</time>
      </trkpt>
      <trkpt lat="49.19246" lon="7.03498">
        <ele>200.57</ele>
        <time>2021-07-21T17:59:23Z</time>
      </trkpt>
      <trkpt lat="49.19246" lon="7.03498">
        <ele>200.09</ele>
        <time>2021-07-21T17:59:24Z</time>
      </trkpt>
      <trkpt lat="49.19436" lon="7.03273">
        <ele>198.65</ele>
        <time>2021-07-21T17:59:38Z</time>
      </trkpt>
      <trkpt lat="49.19541" lon="7.03129">
        <ele>200.57</ele>
        <time>2021-07-21T17:59:48Z</time>
      </trkpt>
      <trkpt lat="49.19727" lon="7.02906">
        <ele>197.21</ele>
        <time>2021-07-21T18:00:04Z</time>
      </trkpt>
      <trkpt lat="49.19902" lon="7.02702">
        <ele>202.01</ele>
        <time>2021-07-21T18:00:19Z</time>
      </trkpt>
      <trkpt lat="49.20043" lon="7.02508">
        <ele>201.53</ele>
        <time>2021-07-21T18:00:31Z</time>
      </trkpt>
      <trkpt lat="49.2025" lon="7.02181">
        <ele>200.09</ele>
        <time>2021-07-21T18:00:49Z</time>
      </trkpt>
      <trkpt lat="49.20361" lon="7.02075">
        <ele>203.46</ele>
        <time>2021-07-21T18:00:57Z</time>
      </trkpt>
      <trkpt lat="49.20487" lon="7.02046">
        <ele>199.13</ele>
        <time>2021-07-21T18:01:05Z</time>
      </trkpt>
      <trkpt lat="49.20617" lon="7.02077">
        <ele>197.69</ele>
        <time>2021-07-21T18:01:14Z</time>
      </trkpt>
      <trkpt lat="49.20699" lon="7.02122">
        <ele>197.21</ele>
        <time>2021-07-21T18:01:22Z</time>
      </trkpt>
      <trkpt lat="49.2073" lon="7.02148">
        <ele>198.17</ele>
        <time>2021-07-21T18:01:29Z</time>
      </trkpt>
      <trkpt lat="49.20736" lon="7.02152">
        <ele>198.17</ele>
        <time>2021-07-21T18:01:39Z</time>
      </trkpt>
      <trkpt lat="49.20736" lon="7.02152">
        <ele>198.17</ele>
        <time>2021-07-21T18:01:41Z</time>
      </trkpt>
      <trkpt lat="49.20747" lon="7.02161">
        <ele>197.69</ele>
        <time>2021-07-21T18:01:44Z</time>
      </trkpt>
      <trkpt lat="49.20814" lon="7.02215">
        <ele>197.69</ele>
        <time>2021-07-21T18:01:57Z</time>
      </trkpt>
      <trkpt lat="49.20825" lon="7.02225">
        <ele>197.21</ele>
        <time>2021-07-21T18:02:00Z</time>
      </trkpt>
      <trkpt lat="49.20835" lon="7.02235">
        <ele>197.21</ele>
        <time>2021-07-21T18:02:02Z</time>
      </trkpt>
      <trkpt lat="49.20839" lon="7.0224">
        <ele>197.21</ele>
        <time>2021-07-21T18:02:03Z</time>
      </trkpt>
      <trkpt lat="49.20841" lon="7.02243">
        <ele>197.21</ele>
        <time>2021-07-21T18:02:04Z</time>
      </trkpt>
      <trkpt lat="49.20844" lon="7.02247">
        <ele>197.21</ele>
        <time>2021-07-21T18:02:05Z</time>
      </trkpt>
      <trkpt lat="49.20836" lon="7.02268">
        <ele>196.73</ele>
        <time>2021-07-21T18:02:06Z</time>
      </trkpt>
      <trkpt lat="49.20834" lon="7.02276">
        <ele>196.73</ele>
        <time>2021-07-21T18:02:07Z</time>
      </trkpt>
      <trkpt lat="49.20831" lon="7.02286">
        <ele>196.73</ele>
        <time>2021-07-21T18:02:08Z</time>
      </trkpt>
      <trkpt lat="49.20789" lon="7.02417">
        <ele>199.13</ele>
        <time>2021-07-21T18:02:17Z</time>
      </trkpt>
      <trkpt lat="49.2078" lon="7.02451">
        <ele>198.17</ele>
        <time>2021-07-21T18:02:19Z</time>
      </trkpt>
      <trkpt lat="49.20776" lon="7.02468">
        <ele>197.69</ele>
        <time>2021-07-21T18:02:20Z</time>
      </trkpt>
      <trkpt lat="49.20773" lon="7.02485">
        <ele>198.17</ele>
        <time>2021-07-21T18:02:21Z</time>
      </trkpt>
      <trkpt lat="49.20772" lon="7.025">
        <ele>198.65</ele>
        <time>2021-07-21T18:02:22Z</time>
      </trkpt>
      <trkpt lat="49.20771" lon="7.02517">
        <ele>200.57</ele>
        <time>2021-07-21T18:02:23Z</time>
      </trkpt>
      <trkpt lat="49.20769" lon="7.02563">
        <ele>199.13</ele>
        <time>2021-07-21T18:02:26Z</time>
      </trkpt>
      <trkpt lat="49.20769" lon="7.02577">
        <ele>198.65</ele>
        <time>2021-07-21T18:02:27Z</time>
      </trkpt>
      <trkpt lat="49.20768" lon="7.02591">
        <ele>198.17</ele>
        <time>2021-07-21T18:02:28Z</time>
      </trkpt>
      <trkpt lat="49.20766" lon="7.02606">
        <ele>197.69</ele>
        <time>2021-07-21T18:02:29Z</time>
      </trkpt>
      <trkpt lat="49.20763" lon="7.02621">
        <ele>198.65</ele>
        <time>2021-07-21T18:02:30Z</time>
      </trkpt>
      <trkpt lat="49.2076" lon="7.02637">
        <ele>199.13</ele>
        <time>2021-07-21T18:02:31Z</time>
      </trkpt>
      <trkpt lat="49.20712" lon="7.02812">
        <ele>202.01</ele>
        <time>2021-07-21T18:02:40Z</time>
      </trkpt>
      <trkpt lat="49.20662" lon="7.03132">
        <ele>206.34</ele>
        <time>2021-07-21T18:02:52Z</time>
      </trkpt>
      <trkpt lat="49.20611" lon="7.03534">
        <ele>212.59</ele>
        <time>2021-07-21T18:03:05Z</time>
      </trkpt>
      <trkpt lat="49.2051" lon="7.04027">
        <ele>223.16</ele>
        <time>2021-07-21T18:03:21Z</time>
      </trkpt>
      <trkpt lat="49.20433" lon="7.04438">
        <ele>230.85</ele>
        <time>2021-07-21T18:03:35Z</time>
      </trkpt>
      <trkpt lat="49.20394" lon="7.04775">
        <ele>235.66</ele>
        <time>2021-07-21T18:03:46Z</time>
      </trkpt>
      <trkpt lat="49.20386" lon="7.0505">
        <ele>228.93</ele>
        <time>2021-07-21T18:03:58Z</time>
      </trkpt>
      <trkpt lat="49.20403" lon="7.0519">
        <ele>223.16</ele>
        <time>2021-07-21T18:04:04Z</time>
      </trkpt>
      <trkpt lat="49.20416" lon="7.05223">
        <ele>223.16</ele>
        <time>2021-07-21T18:04:05Z</time>
      </trkpt>
      <trkpt lat="49.20416" lon="7.05223">
        <ele>222.2</ele>
        <time>2021-07-21T18:04:06Z</time>
      </trkpt>
      <trkpt lat="49.20424" lon="7.05236">
        <ele>221.24</ele>
        <time>2021-07-21T18:04:07Z</time>
      </trkpt>
      <trkpt lat="49.20432" lon="7.05246">
        <ele>220.28</ele>
        <time>2021-07-21T18:04:08Z</time>
      </trkpt>
      <trkpt lat="49.20438" lon="7.05254">
        <ele>219.32</ele>
        <time>2021-07-21T18:04:09Z</time>
      </trkpt>
      <trkpt lat="49.20444" lon="7.05262">
        <ele>218.36</ele>
        <time>2021-07-21T18:04:10Z</time>
      </trkpt>
      <trkpt lat="49.20452" lon="7.05262">
        <ele>217.4</ele>
        <time>2021-07-21T18:04:11Z</time>
      </trkpt>
      <trkpt lat="49.2046" lon="7.05263">
        <ele>215.95</ele>
        <time>2021-07-21T18:04:12Z</time>
      </trkpt>
      <trkpt lat="49.20469" lon="7.05263">
        <ele>215.47</ele>
        <time>2021-07-21T18:04:13Z</time>
      </trkpt>
      <trkpt lat="49.20477" lon="7.05258">
        <ele>212.11</ele>
        <time>2021-07-21T18:04:14Z</time>
      </trkpt>
      <trkpt lat="49.2049" lon="7.05237">
        <ele>213.55</ele>
        <time>2021-07-21T18:04:15Z</time>
      </trkpt>
      <trkpt lat="49.2049" lon="7.05237">
        <ele>214.51</ele>
        <time>2021-07-21T18:04:16Z</time>
      </trkpt>
      <trkpt lat="49.20495" lon="7.05228">
        <ele>217.4</ele>
        <time>2021-07-21T18:04:17Z</time>
      </trkpt>
      <trkpt lat="49.20497" lon="7.05214">
        <ele>218.84</ele>
        <time>2021-07-21T18:04:18Z</time>
      </trkpt>
      <trkpt lat="49.20499" lon="7.05197">
        <ele>220.28</ele>
        <time>2021-07-21T18:04:19Z</time>
      </trkpt>
      <trkpt lat="49.20501" lon="7.0518">
        <ele>220.76</ele>
        <time>2021-07-21T18:04:20Z</time>
      </trkpt>
      <trkpt lat="49.20503" lon="7.05162">
        <ele>222.2</ele>
        <time>2021-07-21T18:04:21Z</time>
      </trkpt>
      <trkpt lat="49.20503" lon="7.05145">
        <ele>223.64</ele>
        <time>2021-07-21T18:04:22Z</time>
      </trkpt>
      <trkpt lat="49.20502" lon="7.05127">
        <ele>224.61</ele>
        <time>2021-07-21T18:04:23Z</time>
      </trkpt>
      <trkpt lat="49.20497" lon="7.05107">
        <ele>226.53</ele>
        <time>2021-07-21T18:04:24Z</time>
      </trkpt>
      <trkpt lat="49.20492" lon="7.05087">
        <ele>227.97</ele>
        <time>2021-07-21T18:04:25Z</time>
      </trkpt>
      <trkpt lat="49.20446" lon="7.04872">
        <ele>239.51</ele>
        <time>2021-07-21T18:04:35Z</time>
      </trkpt>
      <trkpt lat="49.20429" lon="7.0465">
        <ele>236.62</ele>
        <time>2021-07-21T18:04:45Z</time>
      </trkpt>
      <trkpt lat="49.20453" lon="7.04376">
        <ele>230.85</ele>
        <time>2021-07-21T18:04:55Z</time>
      </trkpt>
      <trkpt lat="49.20529" lon="7.04002">
        <ele>224.12</ele>
        <time>2021-07-21T18:05:07Z</time>
      </trkpt>
      <trkpt lat="49.2062" lon="7.03557">
        <ele>218.36</ele>
        <time>2021-07-21T18:05:20Z</time>
      </trkpt>
      <trkpt lat="49.20678" lon="7.03098">
        <ele>212.11</ele>
        <time>2021-07-21T18:05:32Z</time>
      </trkpt>
      <trkpt lat="49.20726" lon="7.0282">
        <ele>209.22</ele>
        <time>2021-07-21T18:05:40Z</time>
      </trkpt>
      <trkpt lat="49.20809" lon="7.02573">
        <ele>208.74</ele>
        <time>2021-07-21T18:05:48Z</time>
      </trkpt>
      <trkpt lat="49.20933" lon="7.02363">
        <ele>209.7</ele>
        <time>2021-07-21T18:05:56Z</time>
      </trkpt>
      <trkpt lat="49.21097" lon="7.02217">
        <ele>206.82</ele>
        <time>2021-07-21T18:06:04Z</time>
      </trkpt>
      <trkpt lat="49.21278" lon="7.02143">
        <ele>205.86</ele>
        <time>2021-07-21T18:06:12Z</time>
      </trkpt>
      <trkpt lat="49.21561" lon="7.02086">
        <ele>201.53</ele>
        <time>2021-07-21T18:06:25Z</time>
      </trkpt>
      <trkpt lat="49.21766" lon="7.01949">
        <ele>197.69</ele>
        <time>2021-07-21T18:06:34Z</time>
      </trkpt>
      <trkpt lat="49.21927" lon="7.01766">
        <ele>192.88</ele>
        <time>2021-07-21T18:06:44Z</time>
      </trkpt>
      <trkpt lat="49.22042" lon="7.01603">
        <ele>193.36</ele>
        <time>2021-07-21T18:06:52Z</time>
      </trkpt>
      <trkpt lat="49.2218" lon="7.0137">
        <ele>197.21</ele>
        <time>2021-07-21T18:07:02Z</time>
      </trkpt>
      <trkpt lat="49.22329" lon="7.01067">
        <ele>199.13</ele>
        <time>2021-07-21T18:07:13Z</time>
      </trkpt>
      <trkpt lat="49.22463" lon="7.00718">
        <ele>199.13</ele>
        <time>2021-07-21T18:07:26Z</time>
      </trkpt>
      <trkpt lat="49.22594" lon="7.00401">
        <ele>198.17</ele>
        <time>2021-07-21T18:07:39Z</time>
      </trkpt>
      <trkpt lat="49.2277" lon="7.00062">
        <ele>195.28</ele>
        <time>2021-07-21T18:07:54Z</time>
      </trkpt>
      <trkpt lat="49.22861" lon="6.99828">
        <ele>195.28</ele>
        <time>2021-07-21T18:08:04Z</time>
      </trkpt>
      <trkpt lat="49.22965" lon="6.99512">
        <ele>197.21</ele>
        <time>2021-07-21T18:08:17Z</time>
      </trkpt>
      <trkpt lat="49.23046" lon="6.99365">
        <ele>195.77</ele>
        <time>2021-07-21T18:08:25Z</time>
      </trkpt>
      <trkpt lat="49.2317" lon="6.99232">
        <ele>195.28</ele>
        <time>2021-07-21T18:08:35Z</time>
      </trkpt>
      <trkpt lat="49.23306" lon="6.99132">
        <ele>193.36</ele>
        <time>2021-07-21T18:08:47Z</time>
      </trkpt>
      <trkpt lat="49.23418" lon="6.99113">
        <ele>194.8</ele>
        <time>2021-07-21T18:08:56Z</time>
      </trkpt>
      <trkpt lat="49.23547" lon="6.99105">
        <ele>193.84</ele>
        <time>2021-07-21T18:09:06Z</time>
      </trkpt>
      <trkpt lat="49.23547" lon="6.99105">
        <ele>194.32</ele>
        <time>2021-07-21T18:09:07Z</time>
      </trkpt>
      <trkpt lat="49.23571" lon="6.9909">
        <ele>193.84</ele>
        <time>2021-07-21T18:09:08Z</time>
      </trkpt>
      <trkpt lat="49.23581" lon="6.99078">
        <ele>193.84</ele>
        <time>2021-07-21T18:09:09Z</time>
      </trkpt>
      <trkpt lat="49.23591" lon="6.99062">
        <ele>193.36</ele>
        <time>2021-07-21T18:09:10Z</time>
      </trkpt>
      <trkpt lat="49.23591" lon="6.99062">
        <ele>193.84</ele>
        <time>2021-07-21T18:09:11Z</time>
      </trkpt>
      <trkpt lat="49.236" lon="6.99047">
        <ele>193.36</ele>
        <time>2021-07-21T18:09:12Z</time>
      </trkpt>
      <trkpt lat="49.23617" lon="6.99008">
        <ele>193.84</ele>
        <time>2021-07-21T18:09:13Z</time>
      </trkpt>
      <trkpt lat="49.23617" lon="6.99008">
        <ele>193.36</ele>
        <time>2021-07-21T18:09:14Z</time>
      </trkpt>
      <trkpt lat="49.23625" lon="6.98988">
        <ele>191.92</ele>
        <time>2021-07-21T18:09:15Z</time>
      </trkpt>
      <trkpt lat="49.23643" lon="6.98829">
        <ele>199.13</ele>
        <time>2021-07-21T18:09:22Z</time>
      </trkpt>
      <trkpt lat="49.23633" lon="6.98572">
        <ele>199.61</ele>
        <time>2021-07-21T18:09:32Z</time>
      </trkpt>
      <trkpt lat="49.23633" lon="6.98342">
        <ele>198.65</ele>
        <time>2021-07-21T18:09:42Z</time>
      </trkpt>
      <trkpt lat="49.23623" lon="6.98068">
        <ele>197.69</ele>
        <time>2021-07-21T18:09:52Z</time>
      </trkpt>
      <trkpt lat="49.23617" lon="6.97837">
        <ele>196.25</ele>
        <time>2021-07-21T18:10:00Z</time>
      </trkpt>
      <trkpt lat="49.23611" lon="6.97489">
        <ele>198.17</ele>
        <time>2021-07-21T18:10:11Z</time>
      </trkpt>
      <trkpt lat="49.23568" lon="6.97206">
        <ele>198.17</ele>
        <time>2021-07-21T18:10:21Z</time>
      </trkpt>
      <trkpt lat="49.23498" lon="6.9699">
        <ele>202.01</ele>
        <time>2021-07-21T18:10:31Z</time>
      </trkpt>
      <trkpt lat="49.23406" lon="6.96743">
        <ele>202.01</ele>
        <time>2021-07-21T18:10:43Z</time>
      </trkpt>
      <trkpt lat="49.23377" lon="6.96622">
        <ele>198.65</ele>
        <time>2021-07-21T18:10:48Z</time>
      </trkpt>
      <trkpt lat="49.23376" lon="6.96596">
        <ele>198.65</ele>
        <time>2021-07-21T18:10:49Z</time>
      </trkpt>
      <trkpt lat="49.23368" lon="6.96232">
        <ele>197.69</ele>
        <time>2021-07-21T18:11:03Z</time>
      </trkpt>
      <trkpt lat="49.23355" lon="6.95909">
        <ele>198.17</ele>
        <time>2021-07-21T18:11:15Z</time>
      </trkpt>
      <trkpt lat="49.23339" lon="6.95537">
        <ele>197.21</ele>
        <time>2021-07-21T18:11:29Z</time>
      </trkpt>
      <trkpt lat="49.23332" lon="6.95357">
        <ele>199.13</ele>
        <time>2021-07-21T18:11:37Z</time>
      </trkpt>
      <trkpt lat="49.23335" lon="6.95332">
        <ele>198.65</ele>
        <time>2021-07-21T18:11:38Z</time>
      </trkpt>
      <trkpt lat="49.23343" lon="6.95282">
        <ele>196.73</ele>
        <time>2021-07-21T18:11:40Z</time>
      </trkpt>
      <trkpt lat="49.2335" lon="6.95257">
        <ele>196.25</ele>
        <time>2021-07-21T18:11:41Z</time>
      </trkpt>
      <trkpt lat="49.23358" lon="6.95233">
        <ele>196.25</ele>
        <time>2021-07-21T18:11:42Z</time>
      </trkpt>
      <trkpt lat="49.23367" lon="6.95211">
        <ele>196.73</ele>
        <time>2021-07-21T18:11:43Z</time>
      </trkpt>
      <trkpt lat="49.23378" lon="6.95191">
        <ele>197.21</ele>
        <time>2021-07-21T18:11:44Z</time>
      </trkpt>
      <trkpt lat="49.23526" lon="6.94922">
        <ele>199.13</ele>
        <time>2021-07-21T18:11:58Z</time>
      </trkpt>
      <trkpt lat="49.23647" lon="6.94623">
        <ele>198.65</ele>
        <time>2021-07-21T18:12:12Z</time>
      </trkpt>
      <trkpt lat="49.23758" lon="6.9429">
        <ele>191.92</ele>
        <time>2021-07-21T18:12:27Z</time>
      </trkpt>
      <trkpt lat="49.23867" lon="6.93872">
        <ele>198.17</ele>
        <time>2021-07-21T18:12:43Z</time>
      </trkpt>
      <trkpt lat="49.23902" lon="6.93596">
        <ele>198.65</ele>
        <time>2021-07-21T18:12:53Z</time>
      </trkpt>
      <trkpt lat="49.23909" lon="6.93273">
        <ele>198.17</ele>
        <time>2021-07-21T18:13:04Z</time>
      </trkpt>
      <trkpt lat="49.23942" lon="6.93005">
        <ele>195.77</ele>
        <time>2021-07-21T18:13:13Z</time>
      </trkpt>
      <trkpt lat="49.24048" lon="6.9264">
        <ele>193.36</ele>
        <time>2021-07-21T18:13:24Z</time>
      </trkpt>
      <trkpt lat="49.24185" lon="6.92185">
        <ele>192.88</ele>
        <time>2021-07-21T18:13:41Z</time>
      </trkpt>
      <trkpt lat="49.24292" lon="6.91784">
        <ele>195.28</ele>
        <time>2021-07-21T18:13:54Z</time>
      </trkpt>
      <trkpt lat="49.24413" lon="6.91261">
        <ele>192.88</ele>
        <time>2021-07-21T18:14:08Z</time>
      </trkpt>
      <trkpt lat="49.24519" lon="6.90939">
        <ele>193.84</ele>
        <time>2021-07-21T18:14:18Z</time>
      </trkpt>
      <trkpt lat="49.24573" lon="6.90657">
        <ele>194.8</ele>
        <time>2021-07-21T18:14:27Z</time>
      </trkpt>
      <trkpt lat="49.24666" lon="6.90089">
        <ele>193.84</ele>
        <time>2021-07-21T18:14:43Z</time>
      </trkpt>
      <trkpt lat="49.24715" lon="6.89704">
        <ele>192.4</ele>
        <time>2021-07-21T18:14:54Z</time>
      </trkpt>
      <trkpt lat="49.24796" lon="6.89165">
        <ele>190.96</ele>
        <time>2021-07-21T18:15:09Z</time>
      </trkpt>
      <trkpt lat="49.24921" lon="6.8867">
        <ele>190</ele>
        <time>2021-07-21T18:15:23Z</time>
      </trkpt>
      <trkpt lat="49.25073" lon="6.88178">
        <ele>193.84</ele>
        <time>2021-07-21T18:15:37Z</time>
      </trkpt>
      <trkpt lat="49.25118" lon="6.87876">
        <ele>195.28</ele>
        <time>2021-07-21T18:15:44Z</time>
      </trkpt>
      <trkpt lat="49.25108" lon="6.87603">
        <ele>195.77</ele>
        <time>2021-07-21T18:15:52Z</time>
      </trkpt>
      <trkpt lat="49.25033" lon="6.87276">
        <ele>195.28</ele>
        <time>2021-07-21T18:16:00Z</time>
      </trkpt>
      <trkpt lat="49.2491" lon="6.86828">
        <ele>196.73</ele>
        <time>2021-07-21T18:16:15Z</time>
      </trkpt>
      <trkpt lat="49.24804" lon="6.86552">
        <ele>196.25</ele>
        <time>2021-07-21T18:16:25Z</time>
      </trkpt>
      <trkpt lat="49.24669" lon="6.86357">
        <ele>192.4</ele>
        <time>2021-07-21T18:16:34Z</time>
      </trkpt>
      <trkpt lat="49.24494" lon="6.86199">
        <ele>188.56</ele>
        <time>2021-07-21T18:16:44Z</time>
      </trkpt>
      <trkpt lat="49.24305" lon="6.86039">
        <ele>186.63</ele>
        <time>2021-07-21T18:16:55Z</time>
      </trkpt>
      <trkpt lat="49.24206" lon="6.85866">
        <ele>193.84</ele>
        <time>2021-07-21T18:17:03Z</time>
      </trkpt>
      <trkpt lat="49.24146" lon="6.85646">
        <ele>191.44</ele>
        <time>2021-07-21T18:17:11Z</time>
      </trkpt>
      <trkpt lat="49.24141" lon="6.85378">
        <ele>192.88</ele>
        <time>2021-07-21T18:17:20Z</time>
      </trkpt>
      <trkpt lat="49.24177" lon="6.84818">
        <ele>198.17</ele>
        <time>2021-07-21T18:17:39Z</time>
      </trkpt>
      <trkpt lat="49.24178" lon="6.8454">
        <ele>202.98</ele>
        <time>2021-07-21T18:17:48Z</time>
      </trkpt>
      <trkpt lat="49.24176" lon="6.84165">
        <ele>209.22</ele>
        <time>2021-07-21T18:18:00Z</time>
      </trkpt>
      <trkpt lat="49.24218" lon="6.83926">
        <ele>212.11</ele>
        <time>2021-07-21T18:18:08Z</time>
      </trkpt>
      <trkpt lat="49.24317" lon="6.83691">
        <ele>214.03</ele>
        <time>2021-07-21T18:18:16Z</time>
      </trkpt>
      <trkpt lat="49.24433" lon="6.83541">
        <ele>215.47</ele>
        <time>2021-07-21T18:18:24Z</time>
      </trkpt>
      <trkpt lat="49.24605" lon="6.83431">
        <ele>214.03</ele>
        <time>2021-07-21T18:18:32Z</time>
      </trkpt>
      <trkpt lat="49.24841" lon="6.83362">
        <ele>213.55</ele>
        <time>2021-07-21T18:18:42Z</time>
      </trkpt>
      <trkpt lat="49.2512" lon="6.83341">
        <ele>214.99</ele>
        <time>2021-07-21T18:18:55Z</time>
      </trkpt>
      <trkpt lat="49.25454" lon="6.83318">
        <ele>215.95</ele>
        <time>2021-07-21T18:19:09Z</time>
      </trkpt>
      <trkpt lat="49.25717" lon="6.83248">
        <ele>211.63</ele>
        <time>2021-07-21T18:19:21Z</time>
      </trkpt>
      <trkpt lat="49.26052" lon="6.83083">
        <ele>202.98</ele>
        <time>2021-07-21T18:19:35Z</time>
      </trkpt>
      <trkpt lat="49.2629" lon="6.82904">
        <ele>196.73</ele>
        <time>2021-07-21T18:19:46Z</time>
      </trkpt>
      <trkpt lat="49.26443" lon="6.82731">
        <ele>195.77</ele>
        <time>2021-07-21T18:19:54Z</time>
      </trkpt>
      <trkpt lat="49.26557" lon="6.82495">
        <ele>197.21</ele>
        <time>2021-07-21T18:20:02Z</time>
      </trkpt>
      <trkpt lat="49.26623" lon="6.82224">
        <ele>200.09</ele>
        <time>2021-07-21T18:20:10Z</time>
      </trkpt>
      <trkpt lat="49.26722" lon="6.81578">
        <ele>195.77</ele>
        <time>2021-07-21T18:20:28Z</time>
      </trkpt>
      <trkpt lat="49.2679" lon="6.81121">
        <ele>190.96</ele>
        <time>2021-07-21T18:20:40Z</time>
      </trkpt>
      <trkpt lat="49.26885" lon="6.80714">
        <ele>198.65</ele>
        <time>2021-07-21T18:20:51Z</time>
      </trkpt>
      <trkpt lat="49.27064" lon="6.80131">
        <ele>200.57</ele>
        <time>2021-07-21T18:21:09Z</time>
      </trkpt>
      <trkpt lat="49.2717" lon="6.79688">
        <ele>198.17</ele>
        <time>2021-07-21T18:21:22Z</time>
      </trkpt>
      <trkpt lat="49.27192" lon="6.79393">
        <ele>198.17</ele>
        <time>2021-07-21T18:21:30Z</time>
      </trkpt>
      <trkpt lat="49.27166" lon="6.79109">
        <ele>197.21</ele>
        <time>2021-07-21T18:21:38Z</time>
      </trkpt>
      <trkpt lat="49.27104" lon="6.78683">
        <ele>190</ele>
        <time>2021-07-21T18:21:51Z</time>
      </trkpt>
      <trkpt lat="49.27112" lon="6.78412">
        <ele>190</ele>
        <time>2021-07-21T18:21:59Z</time>
      </trkpt>
      <trkpt lat="49.27167" lon="6.78144">
        <ele>190.48</ele>
        <time>2021-07-21T18:22:07Z</time>
      </trkpt>
      <trkpt lat="49.27278" lon="6.77887">
        <ele>192.4</ele>
        <time>2021-07-21T18:22:16Z</time>
      </trkpt>
      <trkpt lat="49.27439" lon="6.77692">
        <ele>193.84</ele>
        <time>2021-07-21T18:22:25Z</time>
      </trkpt>
      <trkpt lat="49.27825" lon="6.77249">
        <ele>194.8</ele>
        <time>2021-07-21T18:22:46Z</time>
      </trkpt>
      <trkpt lat="49.2827" lon="6.76687">
        <ele>198.65</ele>
        <time>2021-07-21T18:23:11Z</time>
      </trkpt>
      <trkpt lat="49.28548" lon="6.76294">
        <ele>202.49</ele>
        <time>2021-07-21T18:23:27Z</time>
      </trkpt>
      <trkpt lat="49.28897" lon="6.75866">
        <ele>207.78</ele>
        <time>2021-07-21T18:23:46Z</time>
      </trkpt>
      <trkpt lat="49.29205" lon="6.7554">
        <ele>213.55</ele>
        <time>2021-07-21T18:24:02Z</time>
      </trkpt>
      <trkpt lat="49.2945" lon="6.75384">
        <ele>210.67</ele>
        <time>2021-07-21T18:24:13Z</time>
      </trkpt>
      <trkpt lat="49.29751" lon="6.75204">
        <ele>200.09</ele>
        <time>2021-07-21T18:24:26Z</time>
      </trkpt>
      <trkpt lat="49.29905" lon="6.75021">
        <ele>194.32</ele>
        <time>2021-07-21T18:24:33Z</time>
      </trkpt>
      <trkpt lat="49.30104" lon="6.74734">
        <ele>190</ele>
        <time>2021-07-21T18:24:46Z</time>
      </trkpt>
      <trkpt lat="49.3021" lon="6.74593">
        <ele>190.96</ele>
        <time>2021-07-21T18:24:55Z</time>
      </trkpt>
      <trkpt lat="49.30313" lon="6.7442">
        <ele>189.04</ele>
        <time>2021-07-21T18:25:03Z</time>
      </trkpt>
      <trkpt lat="49.3041" lon="6.74172">
        <ele>190.48</ele>
        <time>2021-07-21T18:25:13Z</time>
      </trkpt>
      <trkpt lat="49.30517" lon="6.73836">
        <ele>190.96</ele>
        <time>2021-07-21T18:25:26Z</time>
      </trkpt>
      <trkpt lat="49.30624" lon="6.73569">
        <ele>187.11</ele>
        <time>2021-07-21T18:25:35Z</time>
      </trkpt>
      <trkpt lat="49.30778" lon="6.73317">
        <ele>187.59</ele>
        <time>2021-07-21T18:25:43Z</time>
      </trkpt>
      <trkpt lat="49.30969" lon="6.73133">
        <ele>187.11</ele>
        <time>2021-07-21T18:25:52Z</time>
      </trkpt>
      <trkpt lat="49.31151" lon="6.73027">
        <ele>187.11</ele>
        <time>2021-07-21T18:26:01Z</time>
      </trkpt>
      <trkpt lat="49.31368" lon="6.72981">
        <ele>185.67</ele>
        <time>2021-07-21T18:26:10Z</time>
      </trkpt>
      <trkpt lat="49.31579" lon="6.73">
        <ele>189.52</ele>
        <time>2021-07-21T18:26:19Z</time>
      </trkpt>
      <trkpt lat="49.31807" lon="6.73104">
        <ele>189.04</ele>
        <time>2021-07-21T18:26:29Z</time>
      </trkpt>
      <trkpt lat="49.32121" lon="6.73283">
        <ele>191.92</ele>
        <time>2021-07-21T18:26:44Z</time>
      </trkpt>
      <trkpt lat="49.32336" lon="6.73333">
        <ele>190</ele>
        <time>2021-07-21T18:26:53Z</time>
      </trkpt>
      <trkpt lat="49.32538" lon="6.73302">
        <ele>187.59</ele>
        <time>2021-07-21T18:27:02Z</time>
      </trkpt>
      <trkpt lat="49.32743" lon="6.73193">
        <ele>188.08</ele>
        <time>2021-07-21T18:27:13Z</time>
      </trkpt>
      <trkpt lat="49.3302" lon="6.7298">
        <ele>185.67</ele>
        <time>2021-07-21T18:27:27Z</time>
      </trkpt>
      <trkpt lat="49.33211" lon="6.72784">
        <ele>184.23</ele>
        <time>2021-07-21T18:27:38Z</time>
      </trkpt>
      <trkpt lat="49.33414" lon="6.72517">
        <ele>182.79</ele>
        <time>2021-07-21T18:27:49Z</time>
      </trkpt>
      <trkpt lat="49.3361" lon="6.72192">
        <ele>183.27</ele>
        <time>2021-07-21T18:28:01Z</time>
      </trkpt>
      <trkpt lat="49.33756" lon="6.7188">
        <ele>181.83</ele>
        <time>2021-07-21T18:28:13Z</time>
      </trkpt>
      <trkpt lat="49.33907" lon="6.71478">
        <ele>179.9</ele>
        <time>2021-07-21T18:28:28Z</time>
      </trkpt>
      <trkpt lat="49.34084" lon="6.71006">
        <ele>183.27</ele>
        <time>2021-07-21T18:28:46Z</time>
      </trkpt>
      <trkpt lat="49.34266" lon="6.7062">
        <ele>183.75</ele>
        <time>2021-07-21T18:29:01Z</time>
      </trkpt>
      <trkpt lat="49.34438" lon="6.70348">
        <ele>182.79</ele>
        <time>2021-07-21T18:29:12Z</time>
      </trkpt>
      <trkpt lat="49.346" lon="6.70209">
        <ele>184.71</ele>
        <time>2021-07-21T18:29:20Z</time>
      </trkpt>
      <trkpt lat="49.34782" lon="6.70144">
        <ele>184.71</ele>
        <time>2021-07-21T18:29:28Z</time>
      </trkpt>
      <trkpt lat="49.34998" lon="6.70148">
        <ele>188.56</ele>
        <time>2021-07-21T18:29:37Z</time>
      </trkpt>
      <trkpt lat="49.35243" lon="6.70131">
        <ele>189.04</ele>
        <time>2021-07-21T18:29:46Z</time>
      </trkpt>
      <trkpt lat="49.3543" lon="6.70058">
        <ele>187.59</ele>
        <time>2021-07-21T18:29:55Z</time>
      </trkpt>
      <trkpt lat="49.35566" lon="6.69964">
        <ele>187.11</ele>
        <time>2021-07-21T18:30:03Z</time>
      </trkpt>
      <trkpt lat="49.35776" lon="6.69748">
        <ele>184.23</ele>
        <time>2021-07-21T18:30:17Z</time>
      </trkpt>
      <trkpt lat="49.35972" lon="6.69581">
        <ele>182.79</ele>
        <time>2021-07-21T18:30:29Z</time>
      </trkpt>
      <trkpt lat="49.36132" lon="6.69498">
        <ele>182.31</ele>
        <time>2021-07-21T18:30:39Z</time>
      </trkpt>
      <trkpt lat="49.36185" lon="6.69496">
        <ele>179.9</ele>
        <time>2021-07-21T18:30:43Z</time>
      </trkpt>
      <trkpt lat="49.36195" lon="6.69496">
        <ele>179.9</ele>
        <time>2021-07-21T18:30:44Z</time>
      </trkpt>
      <trkpt lat="49.36195" lon="6.69496">
        <ele>180.38</ele>
        <time>2021-07-21T18:30:45Z</time>
      </trkpt>
      <trkpt lat="49.36217" lon="6.69498">
        <ele>181.35</ele>
        <time>2021-07-21T18:30:46Z</time>
      </trkpt>
      <trkpt lat="49.36217" lon="6.69498">
        <ele>181.83</ele>
        <time>2021-07-21T18:30:47Z</time>
      </trkpt>
      <trkpt lat="49.36227" lon="6.69502">
        <ele>182.31</ele>
        <time>2021-07-21T18:30:48Z</time>
      </trkpt>
      <trkpt lat="49.36238" lon="6.6951">
        <ele>181.83</ele>
        <time>2021-07-21T18:30:49Z</time>
      </trkpt>
      <trkpt lat="49.36249" lon="6.69517">
        <ele>181.35</ele>
        <time>2021-07-21T18:30:50Z</time>
      </trkpt>
      <trkpt lat="49.36258" lon="6.69524">
        <ele>181.35</ele>
        <time>2021-07-21T18:30:51Z</time>
      </trkpt>
      <trkpt lat="49.36267" lon="6.69533">
        <ele>182.79</ele>
        <time>2021-07-21T18:30:52Z</time>
      </trkpt>
      <trkpt lat="49.36293" lon="6.69556">
        <ele>184.23</ele>
        <time>2021-07-21T18:30:55Z</time>
      </trkpt>
      <trkpt lat="49.36301" lon="6.69564">
        <ele>184.71</ele>
        <time>2021-07-21T18:30:56Z</time>
      </trkpt>
      <trkpt lat="49.36318" lon="6.69577">
        <ele>185.19</ele>
        <time>2021-07-21T18:30:57Z</time>
      </trkpt>
      <trkpt lat="49.36318" lon="6.69577">
        <ele>186.15</ele>
        <time>2021-07-21T18:30:58Z</time>
      </trkpt>
      <trkpt lat="49.36326" lon="6.6958">
        <ele>186.63</ele>
        <time>2021-07-21T18:30:59Z</time>
      </trkpt>
      <trkpt lat="49.36379" lon="6.69592">
        <ele>189.04</ele>
        <time>2021-07-21T18:31:08Z</time>
      </trkpt>
      <trkpt lat="49.36388" lon="6.69594">
        <ele>190.48</ele>
        <time>2021-07-21T18:31:19Z</time>
      </trkpt>
      <trkpt lat="49.36411" lon="6.69599">
        <ele>190.96</ele>
        <time>2021-07-21T18:31:58Z</time>
      </trkpt>
      <trkpt lat="49.36426" lon="6.69602">
        <ele>191.44</ele>
        <time>2021-07-21T18:32:02Z</time>
      </trkpt>
      <trkpt lat="49.36431" lon="6.69604">
        <ele>191.44</ele>
        <time>2021-07-21T18:32:03Z</time>
      </trkpt>
      <trkpt lat="49.36439" lon="6.69606">
        <ele>191.92</ele>
        <time>2021-07-21T18:32:04Z</time>
      </trkpt>
      <trkpt lat="49.36439" lon="6.69606">
        <ele>191.92</ele>
        <time>2021-07-21T18:32:05Z</time>
      </trkpt>
      <trkpt lat="49.36441" lon="6.69595">
        <ele>191.92</ele>
        <time>2021-07-21T18:32:06Z</time>
      </trkpt>
      <trkpt lat="49.36441" lon="6.69587">
        <ele>191.92</ele>
        <time>2021-07-21T18:32:07Z</time>
      </trkpt>
      <trkpt lat="49.36442" lon="6.69577">
        <ele>191.92</ele>
        <time>2021-07-21T18:32:08Z</time>
      </trkpt>
      <trkpt lat="49.36442" lon="6.69567">
        <ele>191.92</ele>
        <time>2021-07-21T18:32:09Z</time>
      </trkpt>
      <trkpt lat="49.3645" lon="6.69401">
        <ele>188.08</ele>
        <time>2021-07-21T18:32:20Z</time>
      </trkpt>
      <trkpt lat="49.36456" lon="6.69134">
        <ele>186.63</ele>
        <time>2021-07-21T18:32:32Z</time>
      </trkpt>
      <trkpt lat="49.36433" lon="6.68938">
        <ele>186.15</ele>
        <time>2021-07-21T18:32:41Z</time>
      </trkpt>
      <trkpt lat="49.36398" lon="6.68766">
        <ele>187.11</ele>
        <time>2021-07-21T18:32:51Z</time>
      </trkpt>
      <trkpt lat="49.36398" lon="6.68753">
        <ele>187.59</ele>
        <time>2021-07-21T18:32:52Z</time>
      </trkpt>
      <trkpt lat="49.36398" lon="6.68742">
        <ele>187.11</ele>
        <time>2021-07-21T18:32:53Z</time>
      </trkpt>
      <trkpt lat="49.36401" lon="6.68734">
        <ele>187.11</ele>
        <time>2021-07-21T18:32:54Z</time>
      </trkpt>
      <trkpt lat="49.36407" lon="6.68726">
        <ele>187.11</ele>
        <time>2021-07-21T18:32:55Z</time>
      </trkpt>
      <trkpt lat="49.36412" lon="6.68718">
        <ele>187.11</ele>
        <time>2021-07-21T18:32:56Z</time>
      </trkpt>
      <trkpt lat="49.36418" lon="6.68715">
        <ele>187.11</ele>
        <time>2021-07-21T18:32:57Z</time>
      </trkpt>
      <trkpt lat="49.36426" lon="6.68711">
        <ele>187.11</ele>
        <time>2021-07-21T18:32:58Z</time>
      </trkpt>
      <trkpt lat="49.36442" lon="6.68704">
        <ele>186.63</ele>
        <time>2021-07-21T18:32:59Z</time>
      </trkpt>
      <trkpt lat="49.3651" lon="6.68692">
        <ele>185.67</ele>
        <time>2021-07-21T18:33:09Z</time>
      </trkpt>
      <trkpt lat="49.36523" lon="6.68686">
        <ele>188.56</ele>
        <time>2021-07-21T18:33:20Z</time>
      </trkpt>
      <trkpt lat="49.36523" lon="6.68686">
        <ele>188.56</ele>
        <time>2021-07-21T18:35:47Z</time>
      </trkpt>
      <trkpt lat="49.36523" lon="6.68686">
        <ele>186.15</ele>
        <time>2021-07-21T18:38:03Z</time>
      </trkpt>
      <trkpt lat="49.36523" lon="6.68686">
        <ele>185.67</ele>
        <time>2021-07-21T18:39:05Z</time>
      </trkpt>
      <trkpt lat="49.36523" lon="6.68686">
        <ele>184.23</ele>
        <time>2021-07-21T18:39:45Z</time>
      </trkpt>
      <trkpt lat="49.36524" lon="6.68685">
        <ele>183.75</ele>
        <time>2021-07-21T18:40:05Z</time>
      </trkpt>
      <trkpt lat="49.36526" lon="6.68684">
        <ele>184.23</ele>
        <time>2021-07-21T18:40:06Z</time>
      </trkpt>
      <trkpt lat="49.36537" lon="6.68684">
        <ele>184.71</ele>
        <time>2021-07-21T18:40:23Z</time>
      </trkpt>
      <trkpt lat="49.36537" lon="6.68684">
        <ele>184.71</ele>
        <time>2021-07-21T18:40:43Z</time>
      </trkpt>
      <trkpt lat="49.36537" lon="6.68684">
        <ele>184.23</ele>
        <time>2021-07-21T18:40:53Z</time>
      </trkpt>
      <trkpt lat="49.36537" lon="6.68684">
        <ele>183.75</ele>
        <time>2021-07-21T18:40:54Z</time>
      </trkpt>
      <trkpt lat="49.36546" lon="6.6869">
        <ele>183.75</ele>
        <time>2021-07-21T18:40:55Z</time>
      </trkpt>
      <trkpt lat="49.36533" lon="6.68681">
        <ele>183.75</ele>
        <time>2021-07-21T18:40:56Z</time>
      </trkpt>
      <trkpt lat="49.36546" lon="6.6869">
        <ele>183.75</ele>
        <time>2021-07-21T18:40:57Z</time>
      </trkpt>
      <trkpt lat="49.36546" lon="6.6869">
        <ele>183.75</ele>
        <time>2021-07-21T18:41:10Z</time>
      </trkpt>
      <trkpt lat="49.3655" lon="6.68679">
        <ele>184.23</ele>
        <time>2021-07-21T18:41:33Z</time>
      </trkpt>
      <trkpt lat="49.36551" lon="6.68668">
        <ele>184.23</ele>
        <time>2021-07-21T18:41:34Z</time>
      </trkpt>
      <trkpt lat="49.36549" lon="6.68663">
        <ele>184.23</ele>
        <time>2021-07-21T18:41:35Z</time>
      </trkpt>
      <trkpt lat="49.36548" lon="6.6866">
        <ele>184.23</ele>
        <time>2021-07-21T18:41:36Z</time>
      </trkpt>
      <trkpt lat="49.36548" lon="6.6866">
        <ele>184.23</ele>
        <time>2021-07-21T18:41:37Z</time>
      </trkpt>
      <trkpt lat="49.36536" lon="6.68646">
        <ele>184.23</ele>
        <time>2021-07-21T18:41:38Z</time>
      </trkpt>
      <trkpt lat="49.36533" lon="6.68629">
        <ele>184.23</ele>
        <time>2021-07-21T18:41:39Z</time>
      </trkpt>
      <trkpt lat="49.36531" lon="6.68619">
        <ele>184.23</ele>
        <time>2021-07-21T18:41:40Z</time>
      </trkpt>
      <trkpt lat="49.36531" lon="6.68619">
        <ele>184.71</ele>
        <time>2021-07-21T18:41:41Z</time>
      </trkpt>
      <trkpt lat="49.36529" lon="6.68608">
        <ele>184.71</ele>
        <time>2021-07-21T18:41:42Z</time>
      </trkpt>
      <trkpt lat="49.36522" lon="6.68418">
        <ele>185.67</ele>
        <time>2021-07-21T18:41:54Z</time>
      </trkpt>
      <trkpt lat="49.36506" lon="6.68189">
        <ele>185.67</ele>
        <time>2021-07-21T18:42:08Z</time>
      </trkpt>
      <trkpt lat="49.36472" lon="6.67926">
        <ele>187.59</ele>
        <time>2021-07-21T18:42:20Z</time>
      </trkpt>
      <trkpt lat="49.36466" lon="6.67687">
        <ele>193.36</ele>
        <time>2021-07-21T18:42:30Z</time>
      </trkpt>
      <trkpt lat="49.36482" lon="6.67398">
        <ele>201.53</ele>
        <time>2021-07-21T18:42:42Z</time>
      </trkpt>
      <trkpt lat="49.36492" lon="6.67125">
        <ele>200.09</ele>
        <time>2021-07-21T18:42:57Z</time>
      </trkpt>
      <trkpt lat="49.36511" lon="6.66892">
        <ele>197.21</ele>
        <time>2021-07-21T18:43:10Z</time>
      </trkpt>
      <trkpt lat="49.36513" lon="6.66872">
        <ele>197.21</ele>
        <time>2021-07-21T18:43:12Z</time>
      </trkpt>
      <trkpt lat="49.36511" lon="6.66829">
        <ele>196.25</ele>
        <time>2021-07-21T18:43:16Z</time>
      </trkpt>
      <trkpt lat="49.36511" lon="6.66829">
        <ele>195.77</ele>
        <time>2021-07-21T18:43:17Z</time>
      </trkpt>
      <trkpt lat="49.36516" lon="6.66791">
        <ele>194.8</ele>
        <time>2021-07-21T18:43:23Z</time>
      </trkpt>
      <trkpt lat="49.36512" lon="6.66787">
        <ele>194.8</ele>
        <time>2021-07-21T18:43:24Z</time>
      </trkpt>
      <trkpt lat="49.36508" lon="6.66783">
        <ele>194.8</ele>
        <time>2021-07-21T18:43:25Z</time>
      </trkpt>
      <trkpt lat="49.36507" lon="6.66782">
        <ele>195.28</ele>
        <time>2021-07-21T18:43:26Z</time>
      </trkpt>
      <trkpt lat="49.36496" lon="6.66789">
        <ele>195.28</ele>
        <time>2021-07-21T18:43:27Z</time>
      </trkpt>
      <trkpt lat="49.3649" lon="6.66784">
        <ele>195.28</ele>
        <time>2021-07-21T18:43:28Z</time>
      </trkpt>
      <trkpt lat="49.36486" lon="6.66778">
        <ele>195.77</ele>
        <time>2021-07-21T18:43:29Z</time>
      </trkpt>
      <trkpt lat="49.36481" lon="6.66772">
        <ele>195.77</ele>
        <time>2021-07-21T18:43:30Z</time>
      </trkpt>
      <trkpt lat="49.36476" lon="6.66765">
        <ele>196.25</ele>
        <time>2021-07-21T18:43:31Z</time>
      </trkpt>
      <trkpt lat="49.36396" lon="6.66636">
        <ele>193.84</ele>
        <time>2021-07-21T18:43:44Z</time>
      </trkpt>
      <trkpt lat="49.36339" lon="6.66498">
        <ele>185.19</ele>
        <time>2021-07-21T18:43:55Z</time>
      </trkpt>
      <trkpt lat="49.3626" lon="6.66279">
        <ele>187.59</ele>
        <time>2021-07-21T18:44:08Z</time>
      </trkpt>
      <trkpt lat="49.36183" lon="6.66079">
        <ele>191.92</ele>
        <time>2021-07-21T18:44:22Z</time>
      </trkpt>
      <trkpt lat="49.3611" lon="6.6589">
        <ele>187.11</ele>
        <time>2021-07-21T18:44:36Z</time>
      </trkpt>
      <trkpt lat="49.36045" lon="6.65667">
        <ele>189.04</ele>
        <time>2021-07-21T18:44:51Z</time>
      </trkpt>
      <trkpt lat="49.35977" lon="6.65528">
        <ele>200.09</ele>
        <time>2021-07-21T18:45:01Z</time>
      </trkpt>
      <trkpt lat="49.35863" lon="6.6534">
        <ele>212.59</ele>
        <time>2021-07-21T18:45:13Z</time>
      </trkpt>
      <trkpt lat="49.35863" lon="6.6534">
        <ele>213.07</ele>
        <time>2021-07-21T18:45:14Z</time>
      </trkpt>
      <trkpt lat="49.35851" lon="6.65302">
        <ele>213.55</ele>
        <time>2021-07-21T18:45:15Z</time>
      </trkpt>
      <trkpt lat="49.35851" lon="6.65302">
        <ele>214.51</ele>
        <time>2021-07-21T18:45:16Z</time>
      </trkpt>
      <trkpt lat="49.35846" lon="6.65283">
        <ele>215.95</ele>
        <time>2021-07-21T18:45:17Z</time>
      </trkpt>
      <trkpt lat="49.35842" lon="6.65262">
        <ele>217.4</ele>
        <time>2021-07-21T18:45:18Z</time>
      </trkpt>
      <trkpt lat="49.3584" lon="6.6524">
        <ele>217.88</ele>
        <time>2021-07-21T18:45:19Z</time>
      </trkpt>
      <trkpt lat="49.3583" lon="6.64911">
        <ele>230.85</ele>
        <time>2021-07-21T18:45:33Z</time>
      </trkpt>
      <trkpt lat="49.35832" lon="6.6472">
        <ele>228.45</ele>
        <time>2021-07-21T18:45:40Z</time>
      </trkpt>
      <trkpt lat="49.35829" lon="6.64694">
        <ele>227.97</ele>
        <time>2021-07-21T18:45:41Z</time>
      </trkpt>
      <trkpt lat="49.35764" lon="6.64406">
        <ele>217.4</ele>
        <time>2021-07-21T18:45:52Z</time>
      </trkpt>
      <trkpt lat="49.35756" lon="6.64385">
        <ele>216.43</ele>
        <time>2021-07-21T18:45:53Z</time>
      </trkpt>
      <trkpt lat="49.35745" lon="6.64367">
        <ele>215.47</ele>
        <time>2021-07-21T18:45:54Z</time>
      </trkpt>
      <trkpt lat="49.35732" lon="6.64349">
        <ele>214.99</ele>
        <time>2021-07-21T18:45:55Z</time>
      </trkpt>
      <trkpt lat="49.35719" lon="6.64333">
        <ele>213.55</ele>
        <time>2021-07-21T18:45:56Z</time>
      </trkpt>
      <trkpt lat="49.35608" lon="6.64202">
        <ele>209.22</ele>
        <time>2021-07-21T18:46:04Z</time>
      </trkpt>
      <trkpt lat="49.35596" lon="6.64184">
        <ele>208.26</ele>
        <time>2021-07-21T18:46:05Z</time>
      </trkpt>
      <trkpt lat="49.35585" lon="6.64163">
        <ele>207.3</ele>
        <time>2021-07-21T18:46:06Z</time>
      </trkpt>
      <trkpt lat="49.35578" lon="6.6414">
        <ele>207.3</ele>
        <time>2021-07-21T18:46:07Z</time>
      </trkpt>
      <trkpt lat="49.35571" lon="6.64116">
        <ele>207.3</ele>
        <time>2021-07-21T18:46:08Z</time>
      </trkpt>
      <trkpt lat="49.35491" lon="6.63765">
        <ele>218.36</ele>
        <time>2021-07-21T18:46:22Z</time>
      </trkpt>
      <trkpt lat="49.35444" lon="6.63586">
        <ele>222.68</ele>
        <time>2021-07-21T18:46:29Z</time>
      </trkpt>
      <trkpt lat="49.35436" lon="6.63562">
        <ele>223.16</ele>
        <time>2021-07-21T18:46:30Z</time>
      </trkpt>
      <trkpt lat="49.35317" lon="6.63309">
        <ele>238.54</ele>
        <time>2021-07-21T18:46:42Z</time>
      </trkpt>
      <trkpt lat="49.35136" lon="6.6293">
        <ele>260.17</ele>
        <time>2021-07-21T18:47:01Z</time>
      </trkpt>
      <trkpt lat="49.35001" lon="6.62632">
        <ele>268.83</ele>
        <time>2021-07-21T18:47:15Z</time>
      </trkpt>
      <trkpt lat="49.34853" lon="6.62328">
        <ele>276.04</ele>
        <time>2021-07-21T18:47:29Z</time>
      </trkpt>
      <trkpt lat="49.3474" lon="6.62071">
        <ele>268.83</ele>
        <time>2021-07-21T18:47:40Z</time>
      </trkpt>
      <trkpt lat="49.3459" lon="6.61693">
        <ele>255.85</ele>
        <time>2021-07-21T18:47:55Z</time>
      </trkpt>
      <trkpt lat="49.34508" lon="6.61492">
        <ele>245.27</ele>
        <time>2021-07-21T18:48:04Z</time>
      </trkpt>
      <trkpt lat="49.34418" lon="6.6131">
        <ele>251.52</ele>
        <time>2021-07-21T18:48:13Z</time>
      </trkpt>
      <trkpt lat="49.34376" lon="6.61208">
        <ele>255.85</ele>
        <time>2021-07-21T18:48:18Z</time>
      </trkpt>
      <trkpt lat="49.3437" lon="6.61186">
        <ele>258.25</ele>
        <time>2021-07-21T18:48:19Z</time>
      </trkpt>
      <trkpt lat="49.34365" lon="6.61162">
        <ele>258.73</ele>
        <time>2021-07-21T18:48:20Z</time>
      </trkpt>
      <trkpt lat="49.3436" lon="6.6114">
        <ele>259.69</ele>
        <time>2021-07-21T18:48:21Z</time>
      </trkpt>
      <trkpt lat="49.34357" lon="6.61115">
        <ele>260.65</ele>
        <time>2021-07-21T18:48:22Z</time>
      </trkpt>
      <trkpt lat="49.34342" lon="6.60989">
        <ele>260.17</ele>
        <time>2021-07-21T18:48:27Z</time>
      </trkpt>
      <trkpt lat="49.34335" lon="6.60967">
        <ele>260.65</ele>
        <time>2021-07-21T18:48:28Z</time>
      </trkpt>
      <trkpt lat="49.34228" lon="6.60648">
        <ele>247.68</ele>
        <time>2021-07-21T18:48:41Z</time>
      </trkpt>
      <trkpt lat="49.34083" lon="6.60266">
        <ele>220.76</ele>
        <time>2021-07-21T18:48:55Z</time>
      </trkpt>
      <trkpt lat="49.34033" lon="6.60099">
        <ele>213.55</ele>
        <time>2021-07-21T18:49:01Z</time>
      </trkpt>
      <trkpt lat="49.33987" lon="6.59911">
        <ele>204.42</ele>
        <time>2021-07-21T18:49:09Z</time>
      </trkpt>
      <trkpt lat="49.33971" lon="6.59746">
        <ele>199.13</ele>
        <time>2021-07-21T18:49:17Z</time>
      </trkpt>
      <trkpt lat="49.33973" lon="6.59653">
        <ele>197.21</ele>
        <time>2021-07-21T18:49:21Z</time>
      </trkpt>
      <trkpt lat="49.33973" lon="6.59653">
        <ele>196.25</ele>
        <time>2021-07-21T18:49:22Z</time>
      </trkpt>
      <trkpt lat="49.3397" lon="6.59639">
        <ele>195.77</ele>
        <time>2021-07-21T18:49:23Z</time>
      </trkpt>
      <trkpt lat="49.33963" lon="6.59598">
        <ele>194.8</ele>
        <time>2021-07-21T18:49:26Z</time>
      </trkpt>
      <trkpt lat="49.33964" lon="6.59585">
        <ele>194.32</ele>
        <time>2021-07-21T18:49:27Z</time>
      </trkpt>
      <trkpt lat="49.33967" lon="6.59577">
        <ele>193.84</ele>
        <time>2021-07-21T18:49:28Z</time>
      </trkpt>
      <trkpt lat="49.33967" lon="6.59577">
        <ele>193.84</ele>
        <time>2021-07-21T18:49:29Z</time>
      </trkpt>
      <trkpt lat="49.33977" lon="6.59568">
        <ele>193.36</ele>
        <time>2021-07-21T18:49:30Z</time>
      </trkpt>
      <trkpt lat="49.33986" lon="6.59561">
        <ele>192.88</ele>
        <time>2021-07-21T18:49:31Z</time>
      </trkpt>
      <trkpt lat="49.34002" lon="6.59547">
        <ele>193.36</ele>
        <time>2021-07-21T18:49:32Z</time>
      </trkpt>
      <trkpt lat="49.34033" lon="6.59518">
        <ele>189.52</ele>
        <time>2021-07-21T18:49:35Z</time>
      </trkpt>
      <trkpt lat="49.34043" lon="6.59508">
        <ele>188.56</ele>
        <time>2021-07-21T18:49:36Z</time>
      </trkpt>
      <trkpt lat="49.34101" lon="6.59453">
        <ele>187.11</ele>
        <time>2021-07-21T18:49:43Z</time>
      </trkpt>
      <trkpt lat="49.34112" lon="6.59444">
        <ele>187.11</ele>
        <time>2021-07-21T18:49:44Z</time>
      </trkpt>
      <trkpt lat="49.34158" lon="6.59421">
        <ele>187.59</ele>
        <time>2021-07-21T18:49:48Z</time>
      </trkpt>
      <trkpt lat="49.34188" lon="6.59407">
        <ele>188.08</ele>
        <time>2021-07-21T18:49:51Z</time>
      </trkpt>
      <trkpt lat="49.34193" lon="6.59395">
        <ele>188.08</ele>
        <time>2021-07-21T18:49:52Z</time>
      </trkpt>
      <trkpt lat="49.34196" lon="6.59388">
        <ele>188.08</ele>
        <time>2021-07-21T18:49:53Z</time>
      </trkpt>
      <trkpt lat="49.34196" lon="6.59388">
        <ele>188.56</ele>
        <time>2021-07-21T18:49:54Z</time>
      </trkpt>
      <trkpt lat="49.34195" lon="6.59375">
        <ele>188.56</ele>
        <time>2021-07-21T18:49:55Z</time>
      </trkpt>
      <trkpt lat="49.34194" lon="6.59364">
        <ele>188.08</ele>
        <time>2021-07-21T18:49:56Z</time>
      </trkpt>
      <trkpt lat="49.34194" lon="6.59364">
        <ele>187.59</ele>
        <time>2021-07-21T18:49:57Z</time>
      </trkpt>
      <trkpt lat="49.34193" lon="6.59353">
        <ele>187.11</ele>
        <time>2021-07-21T18:49:58Z</time>
      </trkpt>
      <trkpt lat="49.34181" lon="6.59257">
        <ele>186.15</ele>
        <time>2021-07-21T18:50:04Z</time>
      </trkpt>
      <trkpt lat="49.34181" lon="6.59257">
        <ele>187.11</ele>
        <time>2021-07-21T18:50:05Z</time>
      </trkpt>
      <trkpt lat="49.34185" lon="6.59112">
        <ele>193.36</ele>
        <time>2021-07-21T18:50:14Z</time>
      </trkpt>
      <trkpt lat="49.34183" lon="6.59097">
        <ele>193.36</ele>
        <time>2021-07-21T18:50:15Z</time>
      </trkpt>
      <trkpt lat="49.34181" lon="6.59083">
        <ele>193.36</ele>
        <time>2021-07-21T18:50:16Z</time>
      </trkpt>
      <trkpt lat="49.34174" lon="6.59057">
        <ele>194.32</ele>
        <time>2021-07-21T18:50:18Z</time>
      </trkpt>
      <trkpt lat="49.34164" lon="6.59039">
        <ele>193.84</ele>
        <time>2021-07-21T18:50:20Z</time>
      </trkpt>
      <trkpt lat="49.34158" lon="6.59018">
        <ele>193.36</ele>
        <time>2021-07-21T18:50:22Z</time>
      </trkpt>
      <trkpt lat="49.34155" lon="6.59007">
        <ele>193.36</ele>
        <time>2021-07-21T18:50:23Z</time>
      </trkpt>
      <trkpt lat="49.34149" lon="6.58858">
        <ele>191.44</ele>
        <time>2021-07-21T18:50:34Z</time>
      </trkpt>
      <trkpt lat="49.34149" lon="6.58846">
        <ele>191.92</ele>
        <time>2021-07-21T18:50:35Z</time>
      </trkpt>
      <trkpt lat="49.34167" lon="6.58674">
        <ele>199.13</ele>
        <time>2021-07-21T18:50:46Z</time>
      </trkpt>
      <trkpt lat="49.34173" lon="6.5848">
        <ele>203.46</ele>
        <time>2021-07-21T18:50:57Z</time>
      </trkpt>
      <trkpt lat="49.34167" lon="6.5833">
        <ele>204.9</ele>
        <time>2021-07-21T18:51:05Z</time>
      </trkpt>
      <trkpt lat="49.34166" lon="6.58315">
        <ele>205.38</ele>
        <time>2021-07-21T18:51:06Z</time>
      </trkpt>
      <trkpt lat="49.34166" lon="6.58301">
        <ele>206.34</ele>
        <time>2021-07-21T18:51:07Z</time>
      </trkpt>
      <trkpt lat="49.34164" lon="6.58288">
        <ele>208.26</ele>
        <time>2021-07-21T18:51:08Z</time>
      </trkpt>
      <trkpt lat="49.34162" lon="6.58275">
        <ele>209.22</ele>
        <time>2021-07-21T18:51:09Z</time>
      </trkpt>
      <trkpt lat="49.3416" lon="6.58262">
        <ele>209.22</ele>
        <time>2021-07-21T18:51:10Z</time>
      </trkpt>
      <trkpt lat="49.34122" lon="6.58132">
        <ele>213.55</ele>
        <time>2021-07-21T18:51:19Z</time>
      </trkpt>
      <trkpt lat="49.34117" lon="6.58115">
        <ele>214.51</ele>
        <time>2021-07-21T18:51:20Z</time>
      </trkpt>
      <trkpt lat="49.34112" lon="6.58097">
        <ele>215.47</ele>
        <time>2021-07-21T18:51:21Z</time>
      </trkpt>
      <trkpt lat="49.34107" lon="6.58059">
        <ele>215.47</ele>
        <time>2021-07-21T18:51:22Z</time>
      </trkpt>
      <trkpt lat="49.34107" lon="6.58059">
        <ele>215.95</ele>
        <time>2021-07-21T18:51:23Z</time>
      </trkpt>
      <trkpt lat="49.34106" lon="6.58039">
        <ele>216.91</ele>
        <time>2021-07-21T18:51:24Z</time>
      </trkpt>
      <trkpt lat="49.34113" lon="6.57803">
        <ele>224.12</ele>
        <time>2021-07-21T18:51:35Z</time>
      </trkpt>
      <trkpt lat="49.34122" lon="6.57745">
        <ele>226.53</ele>
        <time>2021-07-21T18:51:41Z</time>
      </trkpt>
      <trkpt lat="49.34122" lon="6.57745">
        <ele>226.53</ele>
        <time>2021-07-21T18:51:56Z</time>
      </trkpt>
      <trkpt lat="49.34124" lon="6.57736">
        <ele>227.01</ele>
        <time>2021-07-21T18:52:41Z</time>
      </trkpt>
      <trkpt lat="49.34126" lon="6.57729">
        <ele>227.49</ele>
        <time>2021-07-21T18:52:42Z</time>
      </trkpt>
      <trkpt lat="49.34153" lon="6.57627">
        <ele>229.89</ele>
        <time>2021-07-21T18:52:50Z</time>
      </trkpt>
      <trkpt lat="49.34157" lon="6.57613">
        <ele>230.37</ele>
        <time>2021-07-21T18:52:51Z</time>
      </trkpt>
      <trkpt lat="49.34157" lon="6.57613">
        <ele>230.37</ele>
        <time>2021-07-21T18:52:52Z</time>
      </trkpt>
      <trkpt lat="49.34205" lon="6.57475">
        <ele>230.37</ele>
        <time>2021-07-21T18:53:00Z</time>
      </trkpt>
      <trkpt lat="49.34282" lon="6.57254">
        <ele>237.1</ele>
        <time>2021-07-21T18:53:10Z</time>
      </trkpt>
      <trkpt lat="49.34348" lon="6.57089">
        <ele>234.22</ele>
        <time>2021-07-21T18:53:19Z</time>
      </trkpt>
      <trkpt lat="49.34434" lon="6.56965">
        <ele>229.41</ele>
        <time>2021-07-21T18:53:27Z</time>
      </trkpt>
      <trkpt lat="49.34567" lon="6.56755">
        <ele>231.81</ele>
        <time>2021-07-21T18:53:38Z</time>
      </trkpt>
      <trkpt lat="49.3473" lon="6.56606">
        <ele>231.33</ele>
        <time>2021-07-21T18:53:48Z</time>
      </trkpt>
      <trkpt lat="49.34865" lon="6.56513">
        <ele>227.01</ele>
        <time>2021-07-21T18:53:56Z</time>
      </trkpt>
      <trkpt lat="49.3491" lon="6.56489">
        <ele>226.53</ele>
        <time>2021-07-21T18:53:59Z</time>
      </trkpt>
      <trkpt lat="49.34921" lon="6.56483">
        <ele>226.05</ele>
        <time>2021-07-21T18:54:00Z</time>
      </trkpt>
      <trkpt lat="49.34931" lon="6.56472">
        <ele>225.57</ele>
        <time>2021-07-21T18:54:01Z</time>
      </trkpt>
      <trkpt lat="49.34939" lon="6.56463">
        <ele>226.05</ele>
        <time>2021-07-21T18:54:02Z</time>
      </trkpt>
      <trkpt lat="49.34942" lon="6.56446">
        <ele>227.49</ele>
        <time>2021-07-21T18:54:03Z</time>
      </trkpt>
      <trkpt lat="49.34946" lon="6.56428">
        <ele>227.49</ele>
        <time>2021-07-21T18:54:04Z</time>
      </trkpt>
      <trkpt lat="49.34946" lon="6.56413">
        <ele>227.97</ele>
        <time>2021-07-21T18:54:05Z</time>
      </trkpt>
      <trkpt lat="49.34944" lon="6.56394">
        <ele>226.53</ele>
        <time>2021-07-21T18:54:06Z</time>
      </trkpt>
      <trkpt lat="49.34937" lon="6.56311">
        <ele>227.49</ele>
        <time>2021-07-21T18:54:10Z</time>
      </trkpt>
      <trkpt lat="49.34938" lon="6.5629">
        <ele>227.97</ele>
        <time>2021-07-21T18:54:11Z</time>
      </trkpt>
      <trkpt lat="49.34941" lon="6.5627">
        <ele>227.49</ele>
        <time>2021-07-21T18:54:12Z</time>
      </trkpt>
      <trkpt lat="49.34946" lon="6.56249">
        <ele>227.49</ele>
        <time>2021-07-21T18:54:13Z</time>
      </trkpt>
      <trkpt lat="49.3495" lon="6.56228">
        <ele>228.93</ele>
        <time>2021-07-21T18:54:14Z</time>
      </trkpt>
      <trkpt lat="49.35021" lon="6.56045">
        <ele>227.49</ele>
        <time>2021-07-21T18:54:23Z</time>
      </trkpt>
      <trkpt lat="49.35111" lon="6.55901">
        <ele>227.49</ele>
        <time>2021-07-21T18:54:32Z</time>
      </trkpt>
      <trkpt lat="49.3516" lon="6.55832">
        <ele>226.05</ele>
        <time>2021-07-21T18:54:42Z</time>
      </trkpt>
      <trkpt lat="49.35189" lon="6.55792">
        <ele>224.61</ele>
        <time>2021-07-21T18:54:46Z</time>
      </trkpt>
      <trkpt lat="49.35196" lon="6.55777">
        <ele>223.16</ele>
        <time>2021-07-21T18:54:47Z</time>
      </trkpt>
      <trkpt lat="49.3526" lon="6.55595">
        <ele>219.32</ele>
        <time>2021-07-21T18:54:57Z</time>
      </trkpt>
      <trkpt lat="49.35317" lon="6.55424">
        <ele>219.32</ele>
        <time>2021-07-21T18:55:07Z</time>
      </trkpt>
      <trkpt lat="49.35335" lon="6.55259">
        <ele>218.36</ele>
        <time>2021-07-21T18:55:17Z</time>
      </trkpt>
      <trkpt lat="49.35354" lon="6.55098">
        <ele>220.28</ele>
        <time>2021-07-21T18:55:28Z</time>
      </trkpt>
      <trkpt lat="49.35416" lon="6.54921">
        <ele>219.32</ele>
        <time>2021-07-21T18:55:37Z</time>
      </trkpt>
      <trkpt lat="49.35472" lon="6.54817">
        <ele>219.8</ele>
        <time>2021-07-21T18:55:43Z</time>
      </trkpt>
      <trkpt lat="49.35482" lon="6.54806">
        <ele>219.32</ele>
        <time>2021-07-21T18:55:44Z</time>
      </trkpt>
      <trkpt lat="49.35502" lon="6.54783">
        <ele>217.88</ele>
        <time>2021-07-21T18:55:45Z</time>
      </trkpt>
      <trkpt lat="49.35632" lon="6.54669">
        <ele>222.68</ele>
        <time>2021-07-21T18:55:56Z</time>
      </trkpt>
      <trkpt lat="49.35646" lon="6.5466">
        <ele>223.16</ele>
        <time>2021-07-21T18:55:57Z</time>
      </trkpt>
      <trkpt lat="49.3573" lon="6.54618">
        <ele>214.03</ele>
        <time>2021-07-21T18:56:03Z</time>
      </trkpt>
      <trkpt lat="49.35742" lon="6.54605">
        <ele>213.07</ele>
        <time>2021-07-21T18:56:04Z</time>
      </trkpt>
      <trkpt lat="49.35752" lon="6.54593">
        <ele>213.07</ele>
        <time>2021-07-21T18:56:05Z</time>
      </trkpt>
      <trkpt lat="49.35758" lon="6.54578">
        <ele>212.59</ele>
        <time>2021-07-21T18:56:06Z</time>
      </trkpt>
      <trkpt lat="49.35764" lon="6.54564">
        <ele>213.55</ele>
        <time>2021-07-21T18:56:07Z</time>
      </trkpt>
      <trkpt lat="49.35769" lon="6.54549">
        <ele>213.07</ele>
        <time>2021-07-21T18:56:08Z</time>
      </trkpt>
      <trkpt lat="49.35773" lon="6.54535">
        <ele>212.59</ele>
        <time>2021-07-21T18:56:09Z</time>
      </trkpt>
      <trkpt lat="49.35798" lon="6.54364">
        <ele>211.15</ele>
        <time>2021-07-21T18:56:19Z</time>
      </trkpt>
      <trkpt lat="49.35801" lon="6.54347">
        <ele>212.59</ele>
        <time>2021-07-21T18:56:24Z</time>
      </trkpt>
      <trkpt lat="49.35797" lon="6.54344">
        <ele>213.07</ele>
        <time>2021-07-21T18:56:25Z</time>
      </trkpt>
      <trkpt lat="49.35793" lon="6.5434">
        <ele>213.55</ele>
        <time>2021-07-21T18:56:26Z</time>
      </trkpt>
      <trkpt lat="49.35783" lon="6.54331">
        <ele>214.03</ele>
        <time>2021-07-21T18:56:28Z</time>
      </trkpt>
      <trkpt lat="49.35669" lon="6.5429">
        <ele>213.07</ele>
        <time>2021-07-21T18:56:39Z</time>
      </trkpt>
      <trkpt lat="49.35658" lon="6.54285">
        <ele>212.11</ele>
        <time>2021-07-21T18:56:40Z</time>
      </trkpt>
      <trkpt lat="49.35647" lon="6.5428">
        <ele>212.59</ele>
        <time>2021-07-21T18:56:41Z</time>
      </trkpt>
      <trkpt lat="49.35606" lon="6.54241">
        <ele>214.03</ele>
        <time>2021-07-21T18:56:46Z</time>
      </trkpt>
      <trkpt lat="49.35606" lon="6.54241">
        <ele>214.03</ele>
        <time>2021-07-21T18:56:47Z</time>
      </trkpt>
      <trkpt lat="49.35604" lon="6.54232">
        <ele>214.03</ele>
        <time>2021-07-21T18:56:48Z</time>
      </trkpt>
      <trkpt lat="49.35601" lon="6.54221">
        <ele>214.03</ele>
        <time>2021-07-21T18:56:49Z</time>
      </trkpt>
      <trkpt lat="49.35599" lon="6.54211">
        <ele>214.51</ele>
        <time>2021-07-21T18:56:50Z</time>
      </trkpt>
      <trkpt lat="49.35596" lon="6.54201">
        <ele>214.51</ele>
        <time>2021-07-21T18:56:51Z</time>
      </trkpt>
      <trkpt lat="49.35595" lon="6.5419">
        <ele>214.99</ele>
        <time>2021-07-21T18:56:52Z</time>
      </trkpt>
      <trkpt lat="49.35595" lon="6.54179">
        <ele>214.99</ele>
        <time>2021-07-21T18:56:53Z</time>
      </trkpt>
      <trkpt lat="49.35597" lon="6.54155">
        <ele>215.47</ele>
        <time>2021-07-21T18:56:54Z</time>
      </trkpt>
      <trkpt lat="49.35597" lon="6.54155">
        <ele>215.47</ele>
        <time>2021-07-21T18:56:55Z</time>
      </trkpt>
      <trkpt lat="49.356" lon="6.54144">
        <ele>215.95</ele>
        <time>2021-07-21T18:56:56Z</time>
      </trkpt>
      <trkpt lat="49.35603" lon="6.54132">
        <ele>215.95</ele>
        <time>2021-07-21T18:56:57Z</time>
      </trkpt>
      <trkpt lat="49.35607" lon="6.54121">
        <ele>215.95</ele>
        <time>2021-07-21T18:56:58Z</time>
      </trkpt>
      <trkpt lat="49.35612" lon="6.54111">
        <ele>215.95</ele>
        <time>2021-07-21T18:56:59Z</time>
      </trkpt>
      <trkpt lat="49.35616" lon="6.54101">
        <ele>216.43</ele>
        <time>2021-07-21T18:57:00Z</time>
      </trkpt>
      <trkpt lat="49.35621" lon="6.54092">
        <ele>216.43</ele>
        <time>2021-07-21T18:57:01Z</time>
      </trkpt>
      <trkpt lat="49.35625" lon="6.54082">
        <ele>216.91</ele>
        <time>2021-07-21T18:57:02Z</time>
      </trkpt>
      <trkpt lat="49.35626" lon="6.54071">
        <ele>217.4</ele>
        <time>2021-07-21T18:57:03Z</time>
      </trkpt>
      <trkpt lat="49.35627" lon="6.54061">
        <ele>217.88</ele>
        <time>2021-07-21T18:57:04Z</time>
      </trkpt>
      <trkpt lat="49.35625" lon="6.5405">
        <ele>217.88</ele>
        <time>2021-07-21T18:57:05Z</time>
      </trkpt>
      <trkpt lat="49.35623" lon="6.54039">
        <ele>218.36</ele>
        <time>2021-07-21T18:57:06Z</time>
      </trkpt>
      <trkpt lat="49.35601" lon="6.53903">
        <ele>222.2</ele>
        <time>2021-07-21T18:57:17Z</time>
      </trkpt>
      <trkpt lat="49.35589" lon="6.53749">
        <ele>226.05</ele>
        <time>2021-07-21T18:57:27Z</time>
      </trkpt>
      <trkpt lat="49.35582" lon="6.53645">
        <ele>228.45</ele>
        <time>2021-07-21T18:57:35Z</time>
      </trkpt>
      <trkpt lat="49.35574" lon="6.53532">
        <ele>227.97</ele>
        <time>2021-07-21T18:57:43Z</time>
      </trkpt>
      <trkpt lat="49.3556" lon="6.53336">
        <ele>233.74</ele>
        <time>2021-07-21T18:57:53Z</time>
      </trkpt>
      <trkpt lat="49.35551" lon="6.53144">
        <ele>240.95</ele>
        <time>2021-07-21T18:58:03Z</time>
      </trkpt>
      <trkpt lat="49.35577" lon="6.52847">
        <ele>250.56</ele>
        <time>2021-07-21T18:58:18Z</time>
      </trkpt>
      <trkpt lat="49.3559" lon="6.52599">
        <ele>249.12</ele>
        <time>2021-07-21T18:58:30Z</time>
      </trkpt>
      <trkpt lat="49.35594" lon="6.52493">
        <ele>245.27</ele>
        <time>2021-07-21T18:58:35Z</time>
      </trkpt>
      <trkpt lat="49.35595" lon="6.52476">
        <ele>245.27</ele>
        <time>2021-07-21T18:58:36Z</time>
      </trkpt>
      <trkpt lat="49.35594" lon="6.5246">
        <ele>243.83</ele>
        <time>2021-07-21T18:58:37Z</time>
      </trkpt>
      <trkpt lat="49.35591" lon="6.52443">
        <ele>242.39</ele>
        <time>2021-07-21T18:58:38Z</time>
      </trkpt>
      <trkpt lat="49.35587" lon="6.52425">
        <ele>241.43</ele>
        <time>2021-07-21T18:58:39Z</time>
      </trkpt>
      <trkpt lat="49.35562" lon="6.52299">
        <ele>239.02</ele>
        <time>2021-07-21T18:58:46Z</time>
      </trkpt>
      <trkpt lat="49.35534" lon="6.52171">
        <ele>234.22</ele>
        <time>2021-07-21T18:58:55Z</time>
      </trkpt>
      <trkpt lat="49.35511" lon="6.52069">
        <ele>228.93</ele>
        <time>2021-07-21T18:59:04Z</time>
      </trkpt>
      <trkpt lat="49.35507" lon="6.52057">
        <ele>227.49</ele>
        <time>2021-07-21T18:59:05Z</time>
      </trkpt>
      <trkpt lat="49.35501" lon="6.5205">
        <ele>227.97</ele>
        <time>2021-07-21T18:59:06Z</time>
      </trkpt>
      <trkpt lat="49.35481" lon="6.52024">
        <ele>229.41</ele>
        <time>2021-07-21T18:59:09Z</time>
      </trkpt>
      <trkpt lat="49.35475" lon="6.52017">
        <ele>228.45</ele>
        <time>2021-07-21T18:59:10Z</time>
      </trkpt>
      <trkpt lat="49.3547" lon="6.52003">
        <ele>228.45</ele>
        <time>2021-07-21T18:59:11Z</time>
      </trkpt>
      <trkpt lat="49.35466" lon="6.5199">
        <ele>228.45</ele>
        <time>2021-07-21T18:59:12Z</time>
      </trkpt>
      <trkpt lat="49.35464" lon="6.51977">
        <ele>227.97</ele>
        <time>2021-07-21T18:59:13Z</time>
      </trkpt>
      <trkpt lat="49.35464" lon="6.5196">
        <ele>227.97</ele>
        <time>2021-07-21T18:59:14Z</time>
      </trkpt>
      <trkpt lat="49.35463" lon="6.5178">
        <ele>227.49</ele>
        <time>2021-07-21T18:59:22Z</time>
      </trkpt>
      <trkpt lat="49.35461" lon="6.51605">
        <ele>229.41</ele>
        <time>2021-07-21T18:59:29Z</time>
      </trkpt>
      <trkpt lat="49.35429" lon="6.51351">
        <ele>229.89</ele>
        <time>2021-07-21T18:59:39Z</time>
      </trkpt>
      <trkpt lat="49.35376" lon="6.50944">
        <ele>225.57</ele>
        <time>2021-07-21T18:59:52Z</time>
      </trkpt>
      <trkpt lat="49.35363" lon="6.50827">
        <ele>227.97</ele>
        <time>2021-07-21T18:59:56Z</time>
      </trkpt>
      <trkpt lat="49.35362" lon="6.50806">
        <ele>227.97</ele>
        <time>2021-07-21T18:59:57Z</time>
      </trkpt>
      <trkpt lat="49.35363" lon="6.50788">
        <ele>227.49</ele>
        <time>2021-07-21T18:59:58Z</time>
      </trkpt>
      <trkpt lat="49.35366" lon="6.50769">
        <ele>227.01</ele>
        <time>2021-07-21T18:59:59Z</time>
      </trkpt>
      <trkpt lat="49.35372" lon="6.50755">
        <ele>227.01</ele>
        <time>2021-07-21T19:00:00Z</time>
      </trkpt>
      <trkpt lat="49.35382" lon="6.50738">
        <ele>227.49</ele>
        <time>2021-07-21T19:00:01Z</time>
      </trkpt>
      <trkpt lat="49.35391" lon="6.50722">
        <ele>227.49</ele>
        <time>2021-07-21T19:00:02Z</time>
      </trkpt>
      <trkpt lat="49.35412" lon="6.50692">
        <ele>226.53</ele>
        <time>2021-07-21T19:00:04Z</time>
      </trkpt>
      <trkpt lat="49.35425" lon="6.5068">
        <ele>227.01</ele>
        <time>2021-07-21T19:00:05Z</time>
      </trkpt>
      <trkpt lat="49.35439" lon="6.50667">
        <ele>227.01</ele>
        <time>2021-07-21T19:00:06Z</time>
      </trkpt>
      <trkpt lat="49.35451" lon="6.50657">
        <ele>226.05</ele>
        <time>2021-07-21T19:00:07Z</time>
      </trkpt>
      <trkpt lat="49.35465" lon="6.50647">
        <ele>226.05</ele>
        <time>2021-07-21T19:00:08Z</time>
      </trkpt>
      <trkpt lat="49.3548" lon="6.50642">
        <ele>226.53</ele>
        <time>2021-07-21T19:00:09Z</time>
      </trkpt>
      <trkpt lat="49.35559" lon="6.5062">
        <ele>230.85</ele>
        <time>2021-07-21T19:00:14Z</time>
      </trkpt>
      <trkpt lat="49.35571" lon="6.50611">
        <ele>230.85</ele>
        <time>2021-07-21T19:00:15Z</time>
      </trkpt>
      <trkpt lat="49.35582" lon="6.50603">
        <ele>232.3</ele>
        <time>2021-07-21T19:00:16Z</time>
      </trkpt>
      <trkpt lat="49.35593" lon="6.50595">
        <ele>233.26</ele>
        <time>2021-07-21T19:00:17Z</time>
      </trkpt>
      <trkpt lat="49.35598" lon="6.50581">
        <ele>232.78</ele>
        <time>2021-07-21T19:00:18Z</time>
      </trkpt>
      <trkpt lat="49.35604" lon="6.50564">
        <ele>232.78</ele>
        <time>2021-07-21T19:00:19Z</time>
      </trkpt>
      <trkpt lat="49.3561" lon="6.50546">
        <ele>233.26</ele>
        <time>2021-07-21T19:00:20Z</time>
      </trkpt>
      <trkpt lat="49.35614" lon="6.50525">
        <ele>234.22</ele>
        <time>2021-07-21T19:00:21Z</time>
      </trkpt>
      <trkpt lat="49.35631" lon="6.50444">
        <ele>235.18</ele>
        <time>2021-07-21T19:00:24Z</time>
      </trkpt>
      <trkpt lat="49.35637" lon="6.50424">
        <ele>235.18</ele>
        <time>2021-07-21T19:00:25Z</time>
      </trkpt>
      <trkpt lat="49.35712" lon="6.50229">
        <ele>237.1</ele>
        <time>2021-07-21T19:00:35Z</time>
      </trkpt>
      <trkpt lat="49.3577" lon="6.501">
        <ele>236.14</ele>
        <time>2021-07-21T19:00:42Z</time>
      </trkpt>
      <trkpt lat="49.35786" lon="6.50075">
        <ele>236.14</ele>
        <time>2021-07-21T19:00:43Z</time>
      </trkpt>
      <trkpt lat="49.35786" lon="6.50075">
        <ele>237.1</ele>
        <time>2021-07-21T19:00:44Z</time>
      </trkpt>
      <trkpt lat="49.35797" lon="6.5007">
        <ele>238.06</ele>
        <time>2021-07-21T19:00:45Z</time>
      </trkpt>
      <trkpt lat="49.35807" lon="6.50064">
        <ele>238.54</ele>
        <time>2021-07-21T19:00:46Z</time>
      </trkpt>
      <trkpt lat="49.35827" lon="6.50054">
        <ele>239.51</ele>
        <time>2021-07-21T19:00:48Z</time>
      </trkpt>
      <trkpt lat="49.35841" lon="6.5004">
        <ele>239.02</ele>
        <time>2021-07-21T19:00:49Z</time>
      </trkpt>
      <trkpt lat="49.35841" lon="6.5004">
        <ele>238.54</ele>
        <time>2021-07-21T19:00:50Z</time>
      </trkpt>
      <trkpt lat="49.35844" lon="6.50032">
        <ele>238.06</ele>
        <time>2021-07-21T19:00:51Z</time>
      </trkpt>
      <trkpt lat="49.35846" lon="6.5002">
        <ele>238.06</ele>
        <time>2021-07-21T19:00:52Z</time>
      </trkpt>
      <trkpt lat="49.35849" lon="6.50008">
        <ele>237.58</ele>
        <time>2021-07-21T19:00:53Z</time>
      </trkpt>
      <trkpt lat="49.35853" lon="6.49994">
        <ele>236.62</ele>
        <time>2021-07-21T19:00:54Z</time>
      </trkpt>
      <trkpt lat="49.35855" lon="6.49979">
        <ele>236.62</ele>
        <time>2021-07-21T19:00:55Z</time>
      </trkpt>
      <trkpt lat="49.35868" lon="6.49774">
        <ele>236.14</ele>
        <time>2021-07-21T19:01:08Z</time>
      </trkpt>
      <trkpt lat="49.35897" lon="6.49615">
        <ele>236.14</ele>
        <time>2021-07-21T19:01:20Z</time>
      </trkpt>
      <trkpt lat="49.35898" lon="6.49596">
        <ele>236.14</ele>
        <time>2021-07-21T19:01:21Z</time>
      </trkpt>
      <trkpt lat="49.35898" lon="6.49596">
        <ele>235.66</ele>
        <time>2021-07-21T19:01:22Z</time>
      </trkpt>
      <trkpt lat="49.35895" lon="6.49587">
        <ele>235.66</ele>
        <time>2021-07-21T19:01:23Z</time>
      </trkpt>
      <trkpt lat="49.35888" lon="6.49566">
        <ele>235.18</ele>
        <time>2021-07-21T19:01:24Z</time>
      </trkpt>
      <trkpt lat="49.35888" lon="6.49566">
        <ele>234.7</ele>
        <time>2021-07-21T19:01:25Z</time>
      </trkpt>
      <trkpt lat="49.35866" lon="6.49494">
        <ele>234.22</ele>
        <time>2021-07-21T19:01:32Z</time>
      </trkpt>
      <trkpt lat="49.35866" lon="6.49494">
        <ele>233.74</ele>
        <time>2021-07-21T19:01:33Z</time>
      </trkpt>
      <trkpt lat="49.35868" lon="6.49485">
        <ele>233.26</ele>
        <time>2021-07-21T19:01:34Z</time>
      </trkpt>
      <trkpt lat="49.35888" lon="6.49346">
        <ele>232.78</ele>
        <time>2021-07-21T19:01:46Z</time>
      </trkpt>
      <trkpt lat="49.35896" lon="6.49125">
        <ele>233.74</ele>
        <time>2021-07-21T19:01:58Z</time>
      </trkpt>
      <trkpt lat="49.35892" lon="6.49033">
        <ele>233.74</ele>
        <time>2021-07-21T19:02:05Z</time>
      </trkpt>
      <trkpt lat="49.35895" lon="6.48928">
        <ele>233.74</ele>
        <time>2021-07-21T19:02:14Z</time>
      </trkpt>
      <trkpt lat="49.35937" lon="6.48786">
        <ele>234.7</ele>
        <time>2021-07-21T19:02:23Z</time>
      </trkpt>
      <trkpt lat="49.35988" lon="6.48595">
        <ele>236.14</ele>
        <time>2021-07-21T19:02:34Z</time>
      </trkpt>
      <trkpt lat="49.36069" lon="6.48328">
        <ele>239.99</ele>
        <time>2021-07-21T19:02:48Z</time>
      </trkpt>
      <trkpt lat="49.36101" lon="6.48091">
        <ele>241.43</ele>
        <time>2021-07-21T19:02:59Z</time>
      </trkpt>
      <trkpt lat="49.3614" lon="6.47716">
        <ele>241.43</ele>
        <time>2021-07-21T19:03:13Z</time>
      </trkpt>
      <trkpt lat="49.36177" lon="6.4742">
        <ele>239.51</ele>
        <time>2021-07-21T19:03:25Z</time>
      </trkpt>
      <trkpt lat="49.36197" lon="6.47258">
        <ele>240.47</ele>
        <time>2021-07-21T19:03:31Z</time>
      </trkpt>
      <trkpt lat="49.36208" lon="6.47214">
        <ele>240.95</ele>
        <time>2021-07-21T19:03:32Z</time>
      </trkpt>
      <trkpt lat="49.36208" lon="6.47214">
        <ele>241.43</ele>
        <time>2021-07-21T19:03:33Z</time>
      </trkpt>
      <trkpt lat="49.36217" lon="6.47197">
        <ele>241.91</ele>
        <time>2021-07-21T19:03:34Z</time>
      </trkpt>
      <trkpt lat="49.36226" lon="6.47184">
        <ele>242.39</ele>
        <time>2021-07-21T19:03:35Z</time>
      </trkpt>
      <trkpt lat="49.36237" lon="6.47174">
        <ele>243.35</ele>
        <time>2021-07-21T19:03:36Z</time>
      </trkpt>
      <trkpt lat="49.36248" lon="6.47164">
        <ele>245.27</ele>
        <time>2021-07-21T19:03:37Z</time>
      </trkpt>
      <trkpt lat="49.36268" lon="6.47146">
        <ele>247.68</ele>
        <time>2021-07-21T19:03:39Z</time>
      </trkpt>
      <trkpt lat="49.36275" lon="6.47138">
        <ele>247.68</ele>
        <time>2021-07-21T19:03:40Z</time>
      </trkpt>
      <trkpt lat="49.36285" lon="6.47114">
        <ele>247.68</ele>
        <time>2021-07-21T19:03:41Z</time>
      </trkpt>
      <trkpt lat="49.36285" lon="6.47114">
        <ele>247.68</ele>
        <time>2021-07-21T19:03:42Z</time>
      </trkpt>
      <trkpt lat="49.3629" lon="6.47102">
        <ele>248.64</ele>
        <time>2021-07-21T19:03:43Z</time>
      </trkpt>
      <trkpt lat="49.36293" lon="6.47089">
        <ele>248.64</ele>
        <time>2021-07-21T19:03:44Z</time>
      </trkpt>
      <trkpt lat="49.36296" lon="6.47064">
        <ele>247.68</ele>
        <time>2021-07-21T19:03:45Z</time>
      </trkpt>
      <trkpt lat="49.36307" lon="6.46943">
        <ele>246.23</ele>
        <time>2021-07-21T19:03:58Z</time>
      </trkpt>
      <trkpt lat="49.36308" lon="6.46934">
        <ele>246.23</ele>
        <time>2021-07-21T19:04:09Z</time>
      </trkpt>
      <trkpt lat="49.36309" lon="6.46923">
        <ele>246.23</ele>
        <time>2021-07-21T19:04:17Z</time>
      </trkpt>
      <trkpt lat="49.3631" lon="6.46917">
        <ele>246.23</ele>
        <time>2021-07-21T19:04:18Z</time>
      </trkpt>
      <trkpt lat="49.36314" lon="6.46899">
        <ele>245.75</ele>
        <time>2021-07-21T19:04:27Z</time>
      </trkpt>
      <trkpt lat="49.36317" lon="6.46887">
        <ele>245.75</ele>
        <time>2021-07-21T19:04:29Z</time>
      </trkpt>
      <trkpt lat="49.36318" lon="6.4688">
        <ele>245.75</ele>
        <time>2021-07-21T19:04:30Z</time>
      </trkpt>
      <trkpt lat="49.3632" lon="6.46872">
        <ele>245.27</ele>
        <time>2021-07-21T19:04:31Z</time>
      </trkpt>
      <trkpt lat="49.36341" lon="6.46762">
        <ele>243.83</ele>
        <time>2021-07-21T19:04:39Z</time>
      </trkpt>
      <trkpt lat="49.36358" lon="6.46674">
        <ele>242.87</ele>
        <time>2021-07-21T19:04:46Z</time>
      </trkpt>
      <trkpt lat="49.36359" lon="6.46661">
        <ele>242.87</ele>
        <time>2021-07-21T19:04:49Z</time>
      </trkpt>
      <trkpt lat="49.36357" lon="6.46658">
        <ele>242.87</ele>
        <time>2021-07-21T19:04:50Z</time>
      </trkpt>
      <trkpt lat="49.36354" lon="6.46653">
        <ele>242.39</ele>
        <time>2021-07-21T19:04:51Z</time>
      </trkpt>
      <trkpt lat="49.3632" lon="6.46598">
        <ele>240.95</ele>
        <time>2021-07-21T19:04:57Z</time>
      </trkpt>
      <trkpt lat="49.36301" lon="6.46575">
        <ele>240.95</ele>
        <time>2021-07-21T19:04:58Z</time>
      </trkpt>
      <trkpt lat="49.36301" lon="6.46575">
        <ele>240.95</ele>
        <time>2021-07-21T19:04:59Z</time>
      </trkpt>
      <trkpt lat="49.36275" lon="6.46553">
        <ele>241.43</ele>
        <time>2021-07-21T19:05:00Z</time>
      </trkpt>
      <trkpt lat="49.36131" lon="6.46451">
        <ele>243.35</ele>
        <time>2021-07-21T19:05:10Z</time>
      </trkpt>
      <trkpt lat="49.35855" lon="6.46255">
        <ele>254.41</ele>
        <time>2021-07-21T19:05:25Z</time>
      </trkpt>
      <trkpt lat="49.3562" lon="6.46058">
        <ele>263.54</ele>
        <time>2021-07-21T19:05:38Z</time>
      </trkpt>
      <trkpt lat="49.35472" lon="6.45835">
        <ele>269.79</ele>
        <time>2021-07-21T19:05:49Z</time>
      </trkpt>
      <trkpt lat="49.35373" lon="6.45657">
        <ele>271.23</ele>
        <time>2021-07-21T19:05:59Z</time>
      </trkpt>
      <trkpt lat="49.3525" lon="6.45378">
        <ele>271.71</ele>
        <time>2021-07-21T19:06:13Z</time>
      </trkpt>
      <trkpt lat="49.35124" lon="6.45084">
        <ele>276.04</ele>
        <time>2021-07-21T19:06:26Z</time>
      </trkpt>
      <trkpt lat="49.35022" lon="6.44791">
        <ele>282.77</ele>
        <time>2021-07-21T19:06:37Z</time>
      </trkpt>
      <trkpt lat="49.34951" lon="6.4444">
        <ele>280.36</ele>
        <time>2021-07-21T19:06:51Z</time>
      </trkpt>
      <trkpt lat="49.34867" lon="6.43879">
        <ele>283.73</ele>
        <time>2021-07-21T19:07:10Z</time>
      </trkpt>
      <trkpt lat="49.34804" lon="6.43419">
        <ele>290.94</ele>
        <time>2021-07-21T19:07:26Z</time>
      </trkpt>
      <trkpt lat="49.34799" lon="6.43089">
        <ele>285.17</ele>
        <time>2021-07-21T19:07:37Z</time>
      </trkpt>
      <trkpt lat="49.34794" lon="6.42727">
        <ele>285.17</ele>
        <time>2021-07-21T19:07:49Z</time>
      </trkpt>
      <trkpt lat="49.34789" lon="6.42698">
        <ele>283.73</ele>
        <time>2021-07-21T19:07:50Z</time>
      </trkpt>
      <trkpt lat="49.34713" lon="6.42464">
        <ele>277.96</ele>
        <time>2021-07-21T19:07:59Z</time>
      </trkpt>
      <trkpt lat="49.34671" lon="6.42334">
        <ele>273.63</ele>
        <time>2021-07-21T19:08:04Z</time>
      </trkpt>
      <trkpt lat="49.34665" lon="6.42308">
        <ele>273.15</ele>
        <time>2021-07-21T19:08:05Z</time>
      </trkpt>
      <trkpt lat="49.3466" lon="6.42279">
        <ele>273.63</ele>
        <time>2021-07-21T19:08:06Z</time>
      </trkpt>
      <trkpt lat="49.34657" lon="6.4225">
        <ele>274.11</ele>
        <time>2021-07-21T19:08:07Z</time>
      </trkpt>
      <trkpt lat="49.34655" lon="6.42221">
        <ele>274.11</ele>
        <time>2021-07-21T19:08:08Z</time>
      </trkpt>
      <trkpt lat="49.34657" lon="6.41996">
        <ele>269.31</ele>
        <time>2021-07-21T19:08:17Z</time>
      </trkpt>
      <trkpt lat="49.34668" lon="6.4183">
        <ele>265.46</ele>
        <time>2021-07-21T19:08:25Z</time>
      </trkpt>
      <trkpt lat="49.34668" lon="6.41796">
        <ele>264.98</ele>
        <time>2021-07-21T19:08:33Z</time>
      </trkpt>
      <trkpt lat="49.3466" lon="6.417">
        <ele>262.1</ele>
        <time>2021-07-21T19:08:43Z</time>
      </trkpt>
      <trkpt lat="49.34679" lon="6.41588">
        <ele>258.25</ele>
        <time>2021-07-21T19:08:52Z</time>
      </trkpt>
      <trkpt lat="49.34683" lon="6.4157">
        <ele>257.29</ele>
        <time>2021-07-21T19:08:54Z</time>
      </trkpt>
      <trkpt lat="49.34684" lon="6.41562">
        <ele>256.81</ele>
        <time>2021-07-21T19:08:55Z</time>
      </trkpt>
      <trkpt lat="49.34685" lon="6.41554">
        <ele>256.81</ele>
        <time>2021-07-21T19:08:56Z</time>
      </trkpt>
      <trkpt lat="49.34685" lon="6.41545">
        <ele>256.33</ele>
        <time>2021-07-21T19:08:57Z</time>
      </trkpt>
      <trkpt lat="49.34684" lon="6.41536">
        <ele>255.85</ele>
        <time>2021-07-21T19:08:58Z</time>
      </trkpt>
      <trkpt lat="49.34682" lon="6.41456">
        <ele>251.52</ele>
        <time>2021-07-21T19:09:07Z</time>
      </trkpt>
      <trkpt lat="49.34683" lon="6.41451">
        <ele>251.04</ele>
        <time>2021-07-21T19:09:08Z</time>
      </trkpt>
      <trkpt lat="49.347" lon="6.41406">
        <ele>248.16</ele>
        <time>2021-07-21T19:09:13Z</time>
      </trkpt>
      <trkpt lat="49.34703" lon="6.41393">
        <ele>247.2</ele>
        <time>2021-07-21T19:09:14Z</time>
      </trkpt>
      <trkpt lat="49.34706" lon="6.41379">
        <ele>246.72</ele>
        <time>2021-07-21T19:09:15Z</time>
      </trkpt>
      <trkpt lat="49.34706" lon="6.41366">
        <ele>246.23</ele>
        <time>2021-07-21T19:09:16Z</time>
      </trkpt>
      <trkpt lat="49.34703" lon="6.41342">
        <ele>245.75</ele>
        <time>2021-07-21T19:09:17Z</time>
      </trkpt>
      <trkpt lat="49.34703" lon="6.41342">
        <ele>245.27</ele>
        <time>2021-07-21T19:09:18Z</time>
      </trkpt>
      <trkpt lat="49.34699" lon="6.41329">
        <ele>245.27</ele>
        <time>2021-07-21T19:09:19Z</time>
      </trkpt>
      <trkpt lat="49.34697" lon="6.41323">
        <ele>243.35</ele>
        <time>2021-07-21T19:09:28Z</time>
      </trkpt>
    </trkseg>
  </trk>
</gpx>